<?xml version="1.0" encoding="UTF-8" standalone="no" ?>
<gpx xmlns="http://www.topografix.com/GPX/1/1" xmlns:xsi="http://www.w3.org/2001/XMLSchema-instance" xsi:schemaLocation="http://www.topografix.com/GPX/1/1 http://www.topografix.com/GPX/1/1/gpx.xsd" version="1.1" creator="VisuGPX - https://www.visugpx.com">
  <metadata>
    <name>MILLAU J1 et 2</name>
  </metadata>
  <trk>
    <name><![CDATA[MILLAU J1 - Creissels 2]]></name>
    <trkseg>
      <trkpt lat="44.07613" lon="3.13014">
        <ele>760</ele>
        <time>2020-10-02T12:21:27.000Z</time>
      </trkpt>
      <trkpt lat="44.07614" lon="3.1302">
        <ele>759.59997558594</ele>
        <time>2020-10-02T12:21:39.000Z</time>
      </trkpt>
      <trkpt lat="44.07614" lon="3.13023">
        <ele>759.40002441406</ele>
        <time>2020-10-02T12:21:40.000Z</time>
      </trkpt>
      <trkpt lat="44.07611" lon="3.13032">
        <ele>759</ele>
        <time>2020-10-02T12:21:42.000Z</time>
      </trkpt>
      <trkpt lat="44.07608" lon="3.13041">
        <ele>758.20001220703</ele>
        <time>2020-10-02T12:21:44.000Z</time>
      </trkpt>
      <trkpt lat="44.07605" lon="3.13057">
        <ele>757.79998779297</ele>
        <time>2020-10-02T12:21:47.000Z</time>
      </trkpt>
      <trkpt lat="44.076" lon="3.13083">
        <ele>757.59997558594</ele>
        <time>2020-10-02T12:21:51.000Z</time>
      </trkpt>
      <trkpt lat="44.07593" lon="3.1312">
        <ele>757.59997558594</ele>
        <time>2020-10-02T12:21:57.000Z</time>
      </trkpt>
      <trkpt lat="44.07589" lon="3.13152">
        <ele>757.59997558594</ele>
        <time>2020-10-02T12:22:02.000Z</time>
      </trkpt>
      <trkpt lat="44.07581" lon="3.13183">
        <ele>757.59997558594</ele>
        <time>2020-10-02T12:22:07.000Z</time>
      </trkpt>
      <trkpt lat="44.0758" lon="3.13205">
        <ele>758</ele>
        <time>2020-10-02T12:22:12.000Z</time>
      </trkpt>
      <trkpt lat="44.07575" lon="3.13241">
        <ele>758.59997558594</ele>
        <time>2020-10-02T12:22:20.000Z</time>
      </trkpt>
      <trkpt lat="44.07569" lon="3.13267">
        <ele>758.59997558594</ele>
        <time>2020-10-02T12:22:26.000Z</time>
      </trkpt>
      <trkpt lat="44.07556" lon="3.13313">
        <ele>758.59997558594</ele>
        <time>2020-10-02T12:22:36.000Z</time>
      </trkpt>
      <trkpt lat="44.07542" lon="3.13358">
        <ele>758.20001220703</ele>
        <time>2020-10-02T12:22:42.000Z</time>
      </trkpt>
      <trkpt lat="44.07532" lon="3.13389">
        <ele>758</ele>
        <time>2020-10-02T12:22:48.000Z</time>
      </trkpt>
      <trkpt lat="44.07515" lon="3.13426">
        <ele>757.20001220703</ele>
        <time>2020-10-02T12:22:55.000Z</time>
      </trkpt>
      <trkpt lat="44.0751" lon="3.13437">
        <ele>756.79998779297</ele>
        <time>2020-10-02T12:22:57.000Z</time>
      </trkpt>
      <trkpt lat="44.07491" lon="3.13471">
        <ele>756.20001220703</ele>
        <time>2020-10-02T12:23:02.000Z</time>
      </trkpt>
      <trkpt lat="44.07481" lon="3.1349">
        <ele>755.79998779297</ele>
        <time>2020-10-02T12:23:04.000Z</time>
      </trkpt>
      <trkpt lat="44.07479" lon="3.13498">
        <ele>755.20001220703</ele>
        <time>2020-10-02T12:23:05.000Z</time>
      </trkpt>
      <trkpt lat="44.07475" lon="3.13503">
        <ele>754.79998779297</ele>
        <time>2020-10-02T12:23:06.000Z</time>
      </trkpt>
      <trkpt lat="44.07471" lon="3.13509">
        <ele>754.59997558594</ele>
        <time>2020-10-02T12:23:07.000Z</time>
      </trkpt>
      <trkpt lat="44.07458" lon="3.13515">
        <ele>753.79998779297</ele>
        <time>2020-10-02T12:23:10.000Z</time>
      </trkpt>
      <trkpt lat="44.07454" lon="3.13515">
        <ele>753.59997558594</ele>
        <time>2020-10-02T12:23:11.000Z</time>
      </trkpt>
      <trkpt lat="44.07442" lon="3.13526">
        <ele>752</ele>
        <time>2020-10-02T12:23:14.000Z</time>
      </trkpt>
      <trkpt lat="44.07426" lon="3.13547">
        <ele>751</ele>
        <time>2020-10-02T12:23:18.000Z</time>
      </trkpt>
      <trkpt lat="44.07423" lon="3.13551">
        <ele>750.79998779297</ele>
        <time>2020-10-02T12:23:19.000Z</time>
      </trkpt>
      <trkpt lat="44.07402" lon="3.13578">
        <ele>750.79998779297</ele>
        <time>2020-10-02T12:23:25.000Z</time>
      </trkpt>
      <trkpt lat="44.07379" lon="3.13602">
        <ele>751.20001220703</ele>
        <time>2020-10-02T12:23:31.000Z</time>
      </trkpt>
      <trkpt lat="44.07362" lon="3.13625">
        <ele>751.20001220703</ele>
        <time>2020-10-02T12:23:35.000Z</time>
      </trkpt>
      <trkpt lat="44.07345" lon="3.13649">
        <ele>750.79998779297</ele>
        <time>2020-10-02T12:23:39.000Z</time>
      </trkpt>
      <trkpt lat="44.07344" lon="3.13655">
        <ele>749.59997558594</ele>
        <time>2020-10-02T12:23:41.000Z</time>
      </trkpt>
      <trkpt lat="44.07345" lon="3.13657">
        <ele>749.20001220703</ele>
        <time>2020-10-02T12:23:42.000Z</time>
      </trkpt>
      <trkpt lat="44.07347" lon="3.13657">
        <ele>748.59997558594</ele>
        <time>2020-10-02T12:23:43.000Z</time>
      </trkpt>
      <trkpt lat="44.07357" lon="3.1366">
        <ele>747</ele>
        <time>2020-10-02T12:23:45.000Z</time>
      </trkpt>
      <trkpt lat="44.07367" lon="3.13659">
        <ele>745.59997558594</ele>
        <time>2020-10-02T12:23:47.000Z</time>
      </trkpt>
      <trkpt lat="44.07373" lon="3.1366">
        <ele>745</ele>
        <time>2020-10-02T12:23:48.000Z</time>
      </trkpt>
      <trkpt lat="44.07381" lon="3.13659">
        <ele>744.20001220703</ele>
        <time>2020-10-02T12:23:49.000Z</time>
      </trkpt>
      <trkpt lat="44.07393" lon="3.13657">
        <ele>743</ele>
        <time>2020-10-02T12:23:51.000Z</time>
      </trkpt>
      <trkpt lat="44.07417" lon="3.13648">
        <ele>741.40002441406</ele>
        <time>2020-10-02T12:23:54.000Z</time>
      </trkpt>
      <trkpt lat="44.07431" lon="3.1364">
        <ele>739.79998779297</ele>
        <time>2020-10-02T12:23:56.000Z</time>
      </trkpt>
      <trkpt lat="44.0744" lon="3.13637">
        <ele>738.79998779297</ele>
        <time>2020-10-02T12:23:57.000Z</time>
      </trkpt>
      <trkpt lat="44.07447" lon="3.13633">
        <ele>737.40002441406</ele>
        <time>2020-10-02T12:23:58.000Z</time>
      </trkpt>
      <trkpt lat="44.07454" lon="3.1363">
        <ele>736.20001220703</ele>
        <time>2020-10-02T12:23:59.000Z</time>
      </trkpt>
      <trkpt lat="44.0746" lon="3.13629">
        <ele>735.20001220703</ele>
        <time>2020-10-02T12:24:00.000Z</time>
      </trkpt>
      <trkpt lat="44.07468" lon="3.13631">
        <ele>734.20001220703</ele>
        <time>2020-10-02T12:24:01.000Z</time>
      </trkpt>
      <trkpt lat="44.07481" lon="3.13638">
        <ele>732.20001220703</ele>
        <time>2020-10-02T12:24:03.000Z</time>
      </trkpt>
      <trkpt lat="44.07486" lon="3.13645">
        <ele>730.59997558594</ele>
        <time>2020-10-02T12:24:04.000Z</time>
      </trkpt>
      <trkpt lat="44.07488" lon="3.13666">
        <ele>729</ele>
        <time>2020-10-02T12:24:06.000Z</time>
      </trkpt>
      <trkpt lat="44.07493" lon="3.13669">
        <ele>727.59997558594</ele>
        <time>2020-10-02T12:24:07.000Z</time>
      </trkpt>
      <trkpt lat="44.07498" lon="3.1367">
        <ele>726.40002441406</ele>
        <time>2020-10-02T12:24:08.000Z</time>
      </trkpt>
      <trkpt lat="44.07501" lon="3.13671">
        <ele>725.20001220703</ele>
        <time>2020-10-02T12:24:09.000Z</time>
      </trkpt>
      <trkpt lat="44.07508" lon="3.13677">
        <ele>723.40002441406</ele>
        <time>2020-10-02T12:24:11.000Z</time>
      </trkpt>
      <trkpt lat="44.07511" lon="3.13679">
        <ele>722.20001220703</ele>
        <time>2020-10-02T12:24:12.000Z</time>
      </trkpt>
      <trkpt lat="44.07514" lon="3.13681">
        <ele>721.59997558594</ele>
        <time>2020-10-02T12:24:13.000Z</time>
      </trkpt>
      <trkpt lat="44.07518" lon="3.13681">
        <ele>721.20001220703</ele>
        <time>2020-10-02T12:24:14.000Z</time>
      </trkpt>
      <trkpt lat="44.07527" lon="3.13681">
        <ele>719.79998779297</ele>
        <time>2020-10-02T12:24:16.000Z</time>
      </trkpt>
      <trkpt lat="44.07534" lon="3.1368">
        <ele>719</ele>
        <time>2020-10-02T12:24:17.000Z</time>
      </trkpt>
      <trkpt lat="44.0754" lon="3.13678">
        <ele>717.59997558594</ele>
        <time>2020-10-02T12:24:18.000Z</time>
      </trkpt>
      <trkpt lat="44.07557" lon="3.13677">
        <ele>716.79998779297</ele>
        <time>2020-10-02T12:24:21.000Z</time>
      </trkpt>
      <trkpt lat="44.07563" lon="3.13679">
        <ele>716.40002441406</ele>
        <time>2020-10-02T12:24:22.000Z</time>
      </trkpt>
      <trkpt lat="44.07572" lon="3.13686">
        <ele>715.20001220703</ele>
        <time>2020-10-02T12:24:24.000Z</time>
      </trkpt>
      <trkpt lat="44.07582" lon="3.13695">
        <ele>714.40002441406</ele>
        <time>2020-10-02T12:24:26.000Z</time>
      </trkpt>
      <trkpt lat="44.07586" lon="3.13698">
        <ele>714</ele>
        <time>2020-10-02T12:24:27.000Z</time>
      </trkpt>
      <trkpt lat="44.07591" lon="3.137">
        <ele>713.59997558594</ele>
        <time>2020-10-02T12:24:28.000Z</time>
      </trkpt>
      <trkpt lat="44.07596" lon="3.13703">
        <ele>713</ele>
        <time>2020-10-02T12:24:29.000Z</time>
      </trkpt>
      <trkpt lat="44.07606" lon="3.13707">
        <ele>711.40002441406</ele>
        <time>2020-10-02T12:24:31.000Z</time>
      </trkpt>
      <trkpt lat="44.07619" lon="3.13707">
        <ele>709.79998779297</ele>
        <time>2020-10-02T12:24:33.000Z</time>
      </trkpt>
      <trkpt lat="44.07633" lon="3.13709">
        <ele>708.79998779297</ele>
        <time>2020-10-02T12:24:35.000Z</time>
      </trkpt>
      <trkpt lat="44.07639" lon="3.13711">
        <ele>708.40002441406</ele>
        <time>2020-10-02T12:24:36.000Z</time>
      </trkpt>
      <trkpt lat="44.0765" lon="3.13717">
        <ele>707.20001220703</ele>
        <time>2020-10-02T12:24:38.000Z</time>
      </trkpt>
      <trkpt lat="44.0766" lon="3.13726">
        <ele>706.59997558594</ele>
        <time>2020-10-02T12:24:40.000Z</time>
      </trkpt>
      <trkpt lat="44.07669" lon="3.1373">
        <ele>706</ele>
        <time>2020-10-02T12:24:41.000Z</time>
      </trkpt>
      <trkpt lat="44.07675" lon="3.13733">
        <ele>705.59997558594</ele>
        <time>2020-10-02T12:24:42.000Z</time>
      </trkpt>
      <trkpt lat="44.07682" lon="3.13735">
        <ele>705</ele>
        <time>2020-10-02T12:24:43.000Z</time>
      </trkpt>
      <trkpt lat="44.0769" lon="3.13736">
        <ele>703.79998779297</ele>
        <time>2020-10-02T12:24:44.000Z</time>
      </trkpt>
      <trkpt lat="44.07708" lon="3.13735">
        <ele>701.40002441406</ele>
        <time>2020-10-02T12:24:46.000Z</time>
      </trkpt>
      <trkpt lat="44.07716" lon="3.13734">
        <ele>701</ele>
        <time>2020-10-02T12:24:47.000Z</time>
      </trkpt>
      <trkpt lat="44.07726" lon="3.13736">
        <ele>700.20001220703</ele>
        <time>2020-10-02T12:24:49.000Z</time>
      </trkpt>
      <trkpt lat="44.07738" lon="3.13746">
        <ele>699</ele>
        <time>2020-10-02T12:24:52.000Z</time>
      </trkpt>
      <trkpt lat="44.07741" lon="3.13749">
        <ele>698.40002441406</ele>
        <time>2020-10-02T12:24:53.000Z</time>
      </trkpt>
      <trkpt lat="44.07745" lon="3.13753">
        <ele>697.59997558594</ele>
        <time>2020-10-02T12:24:54.000Z</time>
      </trkpt>
      <trkpt lat="44.07749" lon="3.13756">
        <ele>696.40002441406</ele>
        <time>2020-10-02T12:24:55.000Z</time>
      </trkpt>
      <trkpt lat="44.07753" lon="3.1376">
        <ele>695.40002441406</ele>
        <time>2020-10-02T12:24:56.000Z</time>
      </trkpt>
      <trkpt lat="44.07757" lon="3.13762">
        <ele>694.59997558594</ele>
        <time>2020-10-02T12:24:57.000Z</time>
      </trkpt>
      <trkpt lat="44.07763" lon="3.13762">
        <ele>694.20001220703</ele>
        <time>2020-10-02T12:24:58.000Z</time>
      </trkpt>
      <trkpt lat="44.07779" lon="3.13757">
        <ele>693.59997558594</ele>
        <time>2020-10-02T12:25:01.000Z</time>
      </trkpt>
      <trkpt lat="44.07794" lon="3.13755">
        <ele>693.40002441406</ele>
        <time>2020-10-02T12:25:05.000Z</time>
      </trkpt>
      <trkpt lat="44.07803" lon="3.13758">
        <ele>693</ele>
        <time>2020-10-02T12:25:07.000Z</time>
      </trkpt>
      <trkpt lat="44.07813" lon="3.13759">
        <ele>692.20001220703</ele>
        <time>2020-10-02T12:25:09.000Z</time>
      </trkpt>
      <trkpt lat="44.07819" lon="3.13759">
        <ele>692</ele>
        <time>2020-10-02T12:25:10.000Z</time>
      </trkpt>
      <trkpt lat="44.07823" lon="3.13757">
        <ele>691.59997558594</ele>
        <time>2020-10-02T12:25:11.000Z</time>
      </trkpt>
      <trkpt lat="44.07836" lon="3.13747">
        <ele>690.59997558594</ele>
        <time>2020-10-02T12:25:14.000Z</time>
      </trkpt>
      <trkpt lat="44.0784" lon="3.13742">
        <ele>690.20001220703</ele>
        <time>2020-10-02T12:25:15.000Z</time>
      </trkpt>
      <trkpt lat="44.07853" lon="3.13728">
        <ele>689.59997558594</ele>
        <time>2020-10-02T12:25:18.000Z</time>
      </trkpt>
      <trkpt lat="44.0787" lon="3.1371">
        <ele>688.79998779297</ele>
        <time>2020-10-02T12:25:21.000Z</time>
      </trkpt>
      <trkpt lat="44.07876" lon="3.13705">
        <ele>688.40002441406</ele>
        <time>2020-10-02T12:25:22.000Z</time>
      </trkpt>
      <trkpt lat="44.07886" lon="3.13692">
        <ele>687</ele>
        <time>2020-10-02T12:25:24.000Z</time>
      </trkpt>
      <trkpt lat="44.07894" lon="3.1368">
        <ele>685.59997558594</ele>
        <time>2020-10-02T12:25:26.000Z</time>
      </trkpt>
      <trkpt lat="44.07902" lon="3.13675">
        <ele>684</ele>
        <time>2020-10-02T12:25:28.000Z</time>
      </trkpt>
      <trkpt lat="44.0791" lon="3.13672">
        <ele>682.79998779297</ele>
        <time>2020-10-02T12:25:30.000Z</time>
      </trkpt>
      <trkpt lat="44.07925" lon="3.1367">
        <ele>681.59997558594</ele>
        <time>2020-10-02T12:25:33.000Z</time>
      </trkpt>
      <trkpt lat="44.07934" lon="3.13664">
        <ele>681.20001220703</ele>
        <time>2020-10-02T12:25:35.000Z</time>
      </trkpt>
      <trkpt lat="44.07945" lon="3.13657">
        <ele>680.59997558594</ele>
        <time>2020-10-02T12:25:39.000Z</time>
      </trkpt>
      <trkpt lat="44.07952" lon="3.13657">
        <ele>680.40002441406</ele>
        <time>2020-10-02T12:25:47.000Z</time>
      </trkpt>
      <trkpt lat="44.07958" lon="3.1366">
        <ele>680.20001220703</ele>
        <time>2020-10-02T12:25:54.000Z</time>
      </trkpt>
      <trkpt lat="44.07959" lon="3.13659">
        <ele>680.20001220703</ele>
        <time>2020-10-02T12:26:00.000Z</time>
      </trkpt>
      <trkpt lat="44.07961" lon="3.13656">
        <ele>680.40002441406</ele>
        <time>2020-10-02T12:26:05.000Z</time>
      </trkpt>
      <trkpt lat="44.07964" lon="3.13658">
        <ele>680.20001220703</ele>
        <time>2020-10-02T12:26:07.000Z</time>
      </trkpt>
      <trkpt lat="44.07966" lon="3.13663">
        <ele>680.20001220703</ele>
        <time>2020-10-02T12:26:11.000Z</time>
      </trkpt>
      <trkpt lat="44.07966" lon="3.13666">
        <ele>680.40002441406</ele>
        <time>2020-10-02T12:26:18.000Z</time>
      </trkpt>
      <trkpt lat="44.07966" lon="3.13666">
        <ele>680.20001220703</ele>
        <time>2020-10-02T12:26:30.000Z</time>
      </trkpt>
      <trkpt lat="44.07967" lon="3.13665">
        <ele>680.40002441406</ele>
        <time>2020-10-02T12:26:47.000Z</time>
      </trkpt>
      <trkpt lat="44.07969" lon="3.13665">
        <ele>680.59997558594</ele>
        <time>2020-10-02T12:27:06.000Z</time>
      </trkpt>
      <trkpt lat="44.0797" lon="3.13667">
        <ele>680.59997558594</ele>
        <time>2020-10-02T12:27:24.000Z</time>
      </trkpt>
      <trkpt lat="44.07968" lon="3.1367">
        <ele>680.79998779297</ele>
        <time>2020-10-02T12:27:37.000Z</time>
      </trkpt>
      <trkpt lat="44.07971" lon="3.13674">
        <ele>680.59997558594</ele>
        <time>2020-10-02T12:27:46.000Z</time>
      </trkpt>
      <trkpt lat="44.07973" lon="3.13678">
        <ele>680.59997558594</ele>
        <time>2020-10-02T12:27:48.000Z</time>
      </trkpt>
      <trkpt lat="44.07984" lon="3.13688">
        <ele>680.59997558594</ele>
        <time>2020-10-02T12:27:52.000Z</time>
      </trkpt>
      <trkpt lat="44.08006" lon="3.13703">
        <ele>680.59997558594</ele>
        <time>2020-10-02T12:27:58.000Z</time>
      </trkpt>
      <trkpt lat="44.08024" lon="3.1371">
        <ele>681</ele>
        <time>2020-10-02T12:28:03.000Z</time>
      </trkpt>
      <trkpt lat="44.08028" lon="3.13711">
        <ele>681.20001220703</ele>
        <time>2020-10-02T12:28:04.000Z</time>
      </trkpt>
      <trkpt lat="44.08039" lon="3.13714">
        <ele>682.40002441406</ele>
        <time>2020-10-02T12:28:07.000Z</time>
      </trkpt>
      <trkpt lat="44.08045" lon="3.13717">
        <ele>682.79998779297</ele>
        <time>2020-10-02T12:28:09.000Z</time>
      </trkpt>
      <trkpt lat="44.08064" lon="3.13728">
        <ele>683.20001220703</ele>
        <time>2020-10-02T12:28:14.000Z</time>
      </trkpt>
      <trkpt lat="44.08073" lon="3.13726">
        <ele>683.40002441406</ele>
        <time>2020-10-02T12:28:16.000Z</time>
      </trkpt>
      <trkpt lat="44.08081" lon="3.1372">
        <ele>683.59997558594</ele>
        <time>2020-10-02T12:28:18.000Z</time>
      </trkpt>
      <trkpt lat="44.08083" lon="3.13715">
        <ele>683.59997558594</ele>
        <time>2020-10-02T12:28:19.000Z</time>
      </trkpt>
      <trkpt lat="44.08084" lon="3.13703">
        <ele>683.79998779297</ele>
        <time>2020-10-02T12:28:21.000Z</time>
      </trkpt>
      <trkpt lat="44.08094" lon="3.13667">
        <ele>684</ele>
        <time>2020-10-02T12:28:27.000Z</time>
      </trkpt>
      <trkpt lat="44.08103" lon="3.13635">
        <ele>684</ele>
        <time>2020-10-02T12:28:33.000Z</time>
      </trkpt>
      <trkpt lat="44.0812" lon="3.13605">
        <ele>684</ele>
        <time>2020-10-02T12:28:39.000Z</time>
      </trkpt>
      <trkpt lat="44.08141" lon="3.13566">
        <ele>683.79998779297</ele>
        <time>2020-10-02T12:28:46.000Z</time>
      </trkpt>
      <trkpt lat="44.08163" lon="3.13531">
        <ele>683</ele>
        <time>2020-10-02T12:28:52.000Z</time>
      </trkpt>
      <trkpt lat="44.08165" lon="3.13525">
        <ele>682.59997558594</ele>
        <time>2020-10-02T12:28:53.000Z</time>
      </trkpt>
      <trkpt lat="44.08169" lon="3.13513">
        <ele>682</ele>
        <time>2020-10-02T12:28:55.000Z</time>
      </trkpt>
      <trkpt lat="44.08175" lon="3.13496">
        <ele>681.59997558594</ele>
        <time>2020-10-02T12:28:58.000Z</time>
      </trkpt>
      <trkpt lat="44.08181" lon="3.1348">
        <ele>681.59997558594</ele>
        <time>2020-10-02T12:29:01.000Z</time>
      </trkpt>
      <trkpt lat="44.08185" lon="3.13462">
        <ele>681.40002441406</ele>
        <time>2020-10-02T12:29:04.000Z</time>
      </trkpt>
      <trkpt lat="44.08189" lon="3.13417">
        <ele>681.40002441406</ele>
        <time>2020-10-02T12:29:10.000Z</time>
      </trkpt>
      <trkpt lat="44.08191" lon="3.1341">
        <ele>681.40002441406</ele>
        <time>2020-10-02T12:29:11.000Z</time>
      </trkpt>
      <trkpt lat="44.08199" lon="3.13397">
        <ele>680.79998779297</ele>
        <time>2020-10-02T12:29:14.000Z</time>
      </trkpt>
      <trkpt lat="44.08202" lon="3.13393">
        <ele>680.59997558594</ele>
        <time>2020-10-02T12:29:15.000Z</time>
      </trkpt>
      <trkpt lat="44.08205" lon="3.1339">
        <ele>680.40002441406</ele>
        <time>2020-10-02T12:29:16.000Z</time>
      </trkpt>
      <trkpt lat="44.08214" lon="3.13381">
        <ele>680</ele>
        <time>2020-10-02T12:29:21.000Z</time>
      </trkpt>
      <trkpt lat="44.0822" lon="3.13361">
        <ele>680</ele>
        <time>2020-10-02T12:29:29.000Z</time>
      </trkpt>
      <trkpt lat="44.08224" lon="3.13342">
        <ele>681.59997558594</ele>
        <time>2020-10-02T12:29:35.000Z</time>
      </trkpt>
      <trkpt lat="44.08224" lon="3.13337">
        <ele>681.79998779297</ele>
        <time>2020-10-02T12:29:36.000Z</time>
      </trkpt>
      <trkpt lat="44.08233" lon="3.13317">
        <ele>682.40002441406</ele>
        <time>2020-10-02T12:29:41.000Z</time>
      </trkpt>
      <trkpt lat="44.08245" lon="3.13289">
        <ele>682.79998779297</ele>
        <time>2020-10-02T12:29:48.000Z</time>
      </trkpt>
      <trkpt lat="44.08256" lon="3.13259">
        <ele>683</ele>
        <time>2020-10-02T12:29:55.000Z</time>
      </trkpt>
      <trkpt lat="44.08272" lon="3.13236">
        <ele>683.20001220703</ele>
        <time>2020-10-02T12:30:02.000Z</time>
      </trkpt>
      <trkpt lat="44.08292" lon="3.13217">
        <ele>683.59997558594</ele>
        <time>2020-10-02T12:30:08.000Z</time>
      </trkpt>
      <trkpt lat="44.08306" lon="3.1321">
        <ele>683.79998779297</ele>
        <time>2020-10-02T12:30:13.000Z</time>
      </trkpt>
      <trkpt lat="44.08325" lon="3.13218">
        <ele>684.79998779297</ele>
        <time>2020-10-02T12:30:19.000Z</time>
      </trkpt>
      <trkpt lat="44.08332" lon="3.13221">
        <ele>685</ele>
        <time>2020-10-02T12:30:21.000Z</time>
      </trkpt>
      <trkpt lat="44.08356" lon="3.1323">
        <ele>685.40002441406</ele>
        <time>2020-10-02T12:30:29.000Z</time>
      </trkpt>
      <trkpt lat="44.08376" lon="3.13229">
        <ele>686.20001220703</ele>
        <time>2020-10-02T12:30:35.000Z</time>
      </trkpt>
      <trkpt lat="44.08383" lon="3.13227">
        <ele>686.79998779297</ele>
        <time>2020-10-02T12:30:37.000Z</time>
      </trkpt>
      <trkpt lat="44.08394" lon="3.13224">
        <ele>687.40002441406</ele>
        <time>2020-10-02T12:30:40.000Z</time>
      </trkpt>
      <trkpt lat="44.08406" lon="3.13218">
        <ele>688</ele>
        <time>2020-10-02T12:30:43.000Z</time>
      </trkpt>
      <trkpt lat="44.08419" lon="3.1321">
        <ele>688.59997558594</ele>
        <time>2020-10-02T12:30:47.000Z</time>
      </trkpt>
      <trkpt lat="44.08432" lon="3.13206">
        <ele>688.79998779297</ele>
        <time>2020-10-02T12:30:51.000Z</time>
      </trkpt>
      <trkpt lat="44.08445" lon="3.13203">
        <ele>689.59997558594</ele>
        <time>2020-10-02T12:30:55.000Z</time>
      </trkpt>
      <trkpt lat="44.08452" lon="3.132">
        <ele>690.40002441406</ele>
        <time>2020-10-02T12:30:57.000Z</time>
      </trkpt>
      <trkpt lat="44.08456" lon="3.13199">
        <ele>691</ele>
        <time>2020-10-02T12:30:58.000Z</time>
      </trkpt>
      <trkpt lat="44.08474" lon="3.13191">
        <ele>691</ele>
        <time>2020-10-02T12:31:03.000Z</time>
      </trkpt>
      <trkpt lat="44.08501" lon="3.13188">
        <ele>691.20001220703</ele>
        <time>2020-10-02T12:31:10.000Z</time>
      </trkpt>
      <trkpt lat="44.08509" lon="3.132">
        <ele>691</ele>
        <time>2020-10-02T12:31:14.000Z</time>
      </trkpt>
      <trkpt lat="44.08521" lon="3.13222">
        <ele>691.20001220703</ele>
        <time>2020-10-02T12:31:21.000Z</time>
      </trkpt>
      <trkpt lat="44.0854" lon="3.13231">
        <ele>691.40002441406</ele>
        <time>2020-10-02T12:31:28.000Z</time>
      </trkpt>
      <trkpt lat="44.08561" lon="3.13229">
        <ele>692.40002441406</ele>
        <time>2020-10-02T12:31:34.000Z</time>
      </trkpt>
      <trkpt lat="44.08567" lon="3.13228">
        <ele>692.79998779297</ele>
        <time>2020-10-02T12:31:36.000Z</time>
      </trkpt>
      <trkpt lat="44.08578" lon="3.13227">
        <ele>693.40002441406</ele>
        <time>2020-10-02T12:31:39.000Z</time>
      </trkpt>
      <trkpt lat="44.08595" lon="3.13229">
        <ele>694.20001220703</ele>
        <time>2020-10-02T12:31:45.000Z</time>
      </trkpt>
      <trkpt lat="44.08598" lon="3.13229">
        <ele>694.40002441406</ele>
        <time>2020-10-02T12:31:46.000Z</time>
      </trkpt>
      <trkpt lat="44.0861" lon="3.13224">
        <ele>695.20001220703</ele>
        <time>2020-10-02T12:31:50.000Z</time>
      </trkpt>
      <trkpt lat="44.08617" lon="3.13226">
        <ele>695.40002441406</ele>
        <time>2020-10-02T12:31:52.000Z</time>
      </trkpt>
      <trkpt lat="44.0863" lon="3.13226">
        <ele>696.40002441406</ele>
        <time>2020-10-02T12:31:56.000Z</time>
      </trkpt>
      <trkpt lat="44.08639" lon="3.13224">
        <ele>696.79998779297</ele>
        <time>2020-10-02T12:31:59.000Z</time>
      </trkpt>
      <trkpt lat="44.0865" lon="3.13237">
        <ele>697.40002441406</ele>
        <time>2020-10-02T12:32:03.000Z</time>
      </trkpt>
      <trkpt lat="44.08658" lon="3.13265">
        <ele>697.59997558594</ele>
        <time>2020-10-02T12:32:09.000Z</time>
      </trkpt>
      <trkpt lat="44.08657" lon="3.1329">
        <ele>697.40002441406</ele>
        <time>2020-10-02T12:32:14.000Z</time>
      </trkpt>
      <trkpt lat="44.08653" lon="3.13313">
        <ele>697.59997558594</ele>
        <time>2020-10-02T12:32:20.000Z</time>
      </trkpt>
      <trkpt lat="44.08644" lon="3.13347">
        <ele>697.40002441406</ele>
        <time>2020-10-02T12:32:29.000Z</time>
      </trkpt>
      <trkpt lat="44.08633" lon="3.13369">
        <ele>697.40002441406</ele>
        <time>2020-10-02T12:32:35.000Z</time>
      </trkpt>
      <trkpt lat="44.08622" lon="3.13398">
        <ele>697.79998779297</ele>
        <time>2020-10-02T12:32:41.000Z</time>
      </trkpt>
      <trkpt lat="44.0863" lon="3.13416">
        <ele>698</ele>
        <time>2020-10-02T12:32:46.000Z</time>
      </trkpt>
      <trkpt lat="44.08638" lon="3.13417">
        <ele>698.20001220703</ele>
        <time>2020-10-02T12:32:47.000Z</time>
      </trkpt>
      <trkpt lat="44.08644" lon="3.13417">
        <ele>698.20001220703</ele>
        <time>2020-10-02T12:32:48.000Z</time>
      </trkpt>
      <trkpt lat="44.08657" lon="3.13417">
        <ele>698.40002441406</ele>
        <time>2020-10-02T12:32:50.000Z</time>
      </trkpt>
      <trkpt lat="44.08685" lon="3.13421">
        <ele>699.20001220703</ele>
        <time>2020-10-02T12:32:56.000Z</time>
      </trkpt>
      <trkpt lat="44.08714" lon="3.1343">
        <ele>699.59997558594</ele>
        <time>2020-10-02T12:33:04.000Z</time>
      </trkpt>
      <trkpt lat="44.08727" lon="3.13436">
        <ele>700.40002441406</ele>
        <time>2020-10-02T12:33:11.000Z</time>
      </trkpt>
      <trkpt lat="44.08729" lon="3.13435">
        <ele>700.59997558594</ele>
        <time>2020-10-02T12:33:13.000Z</time>
      </trkpt>
      <trkpt lat="44.08734" lon="3.13434">
        <ele>701</ele>
        <time>2020-10-02T12:33:17.000Z</time>
      </trkpt>
      <trkpt lat="44.08739" lon="3.13433">
        <ele>701.40002441406</ele>
        <time>2020-10-02T12:33:19.000Z</time>
      </trkpt>
      <trkpt lat="44.08742" lon="3.13433">
        <ele>702</ele>
        <time>2020-10-02T12:33:21.000Z</time>
      </trkpt>
      <trkpt lat="44.08743" lon="3.13435">
        <ele>702.40002441406</ele>
        <time>2020-10-02T12:33:23.000Z</time>
      </trkpt>
      <trkpt lat="44.08745" lon="3.13438">
        <ele>702.59997558594</ele>
        <time>2020-10-02T12:33:24.000Z</time>
      </trkpt>
      <trkpt lat="44.08753" lon="3.13445">
        <ele>703.79998779297</ele>
        <time>2020-10-02T12:33:29.000Z</time>
      </trkpt>
      <trkpt lat="44.08755" lon="3.13445">
        <ele>704</ele>
        <time>2020-10-02T12:33:30.000Z</time>
      </trkpt>
      <trkpt lat="44.08771" lon="3.13453">
        <ele>705.20001220703</ele>
        <time>2020-10-02T12:33:36.000Z</time>
      </trkpt>
      <trkpt lat="44.08777" lon="3.13457">
        <ele>706</ele>
        <time>2020-10-02T12:33:39.000Z</time>
      </trkpt>
      <trkpt lat="44.08785" lon="3.13459">
        <ele>706.40002441406</ele>
        <time>2020-10-02T12:33:42.000Z</time>
      </trkpt>
      <trkpt lat="44.08789" lon="3.1346">
        <ele>706.40002441406</ele>
        <time>2020-10-02T12:33:43.000Z</time>
      </trkpt>
      <trkpt lat="44.08808" lon="3.13462">
        <ele>706.59997558594</ele>
        <time>2020-10-02T12:33:48.000Z</time>
      </trkpt>
      <trkpt lat="44.0882" lon="3.13459">
        <ele>707.59997558594</ele>
        <time>2020-10-02T12:33:51.000Z</time>
      </trkpt>
      <trkpt lat="44.08832" lon="3.13454">
        <ele>708.20001220703</ele>
        <time>2020-10-02T12:33:55.000Z</time>
      </trkpt>
      <trkpt lat="44.08839" lon="3.13453">
        <ele>708.59997558594</ele>
        <time>2020-10-02T12:33:58.000Z</time>
      </trkpt>
      <trkpt lat="44.08841" lon="3.1345">
        <ele>708.79998779297</ele>
        <time>2020-10-02T12:33:59.000Z</time>
      </trkpt>
      <trkpt lat="44.08845" lon="3.1345">
        <ele>709.40002441406</ele>
        <time>2020-10-02T12:34:01.000Z</time>
      </trkpt>
      <trkpt lat="44.08849" lon="3.13452">
        <ele>709.79998779297</ele>
        <time>2020-10-02T12:34:03.000Z</time>
      </trkpt>
      <trkpt lat="44.08851" lon="3.13454">
        <ele>710</ele>
        <time>2020-10-02T12:34:04.000Z</time>
      </trkpt>
      <trkpt lat="44.08853" lon="3.13458">
        <ele>710.40002441406</ele>
        <time>2020-10-02T12:34:06.000Z</time>
      </trkpt>
      <trkpt lat="44.08854" lon="3.13463">
        <ele>710.79998779297</ele>
        <time>2020-10-02T12:34:08.000Z</time>
      </trkpt>
      <trkpt lat="44.08856" lon="3.13479">
        <ele>711.79998779297</ele>
        <time>2020-10-02T12:34:14.000Z</time>
      </trkpt>
      <trkpt lat="44.08857" lon="3.13484">
        <ele>712.20001220703</ele>
        <time>2020-10-02T12:34:16.000Z</time>
      </trkpt>
      <trkpt lat="44.08858" lon="3.13489">
        <ele>712.40002441406</ele>
        <time>2020-10-02T12:34:19.000Z</time>
      </trkpt>
      <trkpt lat="44.08872" lon="3.13497">
        <ele>712.79998779297</ele>
        <time>2020-10-02T12:34:27.000Z</time>
      </trkpt>
      <trkpt lat="44.08878" lon="3.135">
        <ele>712.79998779297</ele>
        <time>2020-10-02T12:34:37.000Z</time>
      </trkpt>
      <trkpt lat="44.08876" lon="3.13501">
        <ele>712.79998779297</ele>
        <time>2020-10-02T12:34:44.000Z</time>
      </trkpt>
      <trkpt lat="44.08873" lon="3.13501">
        <ele>712.79998779297</ele>
        <time>2020-10-02T12:34:52.000Z</time>
      </trkpt>
      <trkpt lat="44.08872" lon="3.13501">
        <ele>712.79998779297</ele>
        <time>2020-10-02T12:35:00.000Z</time>
      </trkpt>
      <trkpt lat="44.08873" lon="3.135">
        <ele>712.79998779297</ele>
        <time>2020-10-02T12:35:12.000Z</time>
      </trkpt>
      <trkpt lat="44.08874" lon="3.13498">
        <ele>712.79998779297</ele>
        <time>2020-10-02T12:35:24.000Z</time>
      </trkpt>
      <trkpt lat="44.08875" lon="3.13499">
        <ele>713</ele>
        <time>2020-10-02T12:35:40.000Z</time>
      </trkpt>
      <trkpt lat="44.08874" lon="3.13499">
        <ele>713.20001220703</ele>
        <time>2020-10-02T12:35:52.000Z</time>
      </trkpt>
      <trkpt lat="44.08874" lon="3.13503">
        <ele>713.20001220703</ele>
        <time>2020-10-02T12:36:06.000Z</time>
      </trkpt>
      <trkpt lat="44.08876" lon="3.13512">
        <ele>713.40002441406</ele>
        <time>2020-10-02T12:36:15.000Z</time>
      </trkpt>
      <trkpt lat="44.0888" lon="3.13513">
        <ele>713.40002441406</ele>
        <time>2020-10-02T12:36:18.000Z</time>
      </trkpt>
      <trkpt lat="44.08887" lon="3.13511">
        <ele>713.40002441406</ele>
        <time>2020-10-02T12:36:20.000Z</time>
      </trkpt>
      <trkpt lat="44.08897" lon="3.13506">
        <ele>713.40002441406</ele>
        <time>2020-10-02T12:36:22.000Z</time>
      </trkpt>
      <trkpt lat="44.08903" lon="3.13502">
        <ele>713.40002441406</ele>
        <time>2020-10-02T12:36:23.000Z</time>
      </trkpt>
      <trkpt lat="44.0892" lon="3.13479">
        <ele>710.79998779297</ele>
        <time>2020-10-02T12:36:27.000Z</time>
      </trkpt>
      <trkpt lat="44.08924" lon="3.13468">
        <ele>709.20001220703</ele>
        <time>2020-10-02T12:36:29.000Z</time>
      </trkpt>
      <trkpt lat="44.08928" lon="3.13458">
        <ele>707.79998779297</ele>
        <time>2020-10-02T12:36:31.000Z</time>
      </trkpt>
      <trkpt lat="44.08933" lon="3.13451">
        <ele>706.59997558594</ele>
        <time>2020-10-02T12:36:33.000Z</time>
      </trkpt>
      <trkpt lat="44.08937" lon="3.13449">
        <ele>705.59997558594</ele>
        <time>2020-10-02T12:36:34.000Z</time>
      </trkpt>
      <trkpt lat="44.0894" lon="3.13447">
        <ele>704.59997558594</ele>
        <time>2020-10-02T12:36:35.000Z</time>
      </trkpt>
      <trkpt lat="44.08945" lon="3.13445">
        <ele>703.79998779297</ele>
        <time>2020-10-02T12:36:36.000Z</time>
      </trkpt>
      <trkpt lat="44.08949" lon="3.13443">
        <ele>702.79998779297</ele>
        <time>2020-10-02T12:36:37.000Z</time>
      </trkpt>
      <trkpt lat="44.08956" lon="3.13438">
        <ele>701.20001220703</ele>
        <time>2020-10-02T12:36:39.000Z</time>
      </trkpt>
      <trkpt lat="44.08961" lon="3.13436">
        <ele>700.20001220703</ele>
        <time>2020-10-02T12:36:40.000Z</time>
      </trkpt>
      <trkpt lat="44.08965" lon="3.13434">
        <ele>698</ele>
        <time>2020-10-02T12:36:41.000Z</time>
      </trkpt>
      <trkpt lat="44.08973" lon="3.13427">
        <ele>695.59997558594</ele>
        <time>2020-10-02T12:36:43.000Z</time>
      </trkpt>
      <trkpt lat="44.08975" lon="3.13423">
        <ele>694.40002441406</ele>
        <time>2020-10-02T12:36:44.000Z</time>
      </trkpt>
      <trkpt lat="44.08977" lon="3.13419">
        <ele>693.40002441406</ele>
        <time>2020-10-02T12:36:45.000Z</time>
      </trkpt>
      <trkpt lat="44.0898" lon="3.13414">
        <ele>692.20001220703</ele>
        <time>2020-10-02T12:36:46.000Z</time>
      </trkpt>
      <trkpt lat="44.08982" lon="3.13409">
        <ele>690.59997558594</ele>
        <time>2020-10-02T12:36:47.000Z</time>
      </trkpt>
      <trkpt lat="44.08985" lon="3.13404">
        <ele>689.20001220703</ele>
        <time>2020-10-02T12:36:48.000Z</time>
      </trkpt>
      <trkpt lat="44.08988" lon="3.13398">
        <ele>687.59997558594</ele>
        <time>2020-10-02T12:36:49.000Z</time>
      </trkpt>
      <trkpt lat="44.08988" lon="3.13394">
        <ele>686.40002441406</ele>
        <time>2020-10-02T12:36:50.000Z</time>
      </trkpt>
      <trkpt lat="44.08989" lon="3.1339">
        <ele>685</ele>
        <time>2020-10-02T12:36:51.000Z</time>
      </trkpt>
      <trkpt lat="44.08988" lon="3.13387">
        <ele>683.40002441406</ele>
        <time>2020-10-02T12:36:52.000Z</time>
      </trkpt>
      <trkpt lat="44.08987" lon="3.13385">
        <ele>681.79998779297</ele>
        <time>2020-10-02T12:36:53.000Z</time>
      </trkpt>
      <trkpt lat="44.08984" lon="3.13383">
        <ele>680.59997558594</ele>
        <time>2020-10-02T12:36:54.000Z</time>
      </trkpt>
      <trkpt lat="44.08981" lon="3.13381">
        <ele>679.20001220703</ele>
        <time>2020-10-02T12:36:55.000Z</time>
      </trkpt>
      <trkpt lat="44.08978" lon="3.13379">
        <ele>677.59997558594</ele>
        <time>2020-10-02T12:36:56.000Z</time>
      </trkpt>
      <trkpt lat="44.08974" lon="3.13378">
        <ele>675.59997558594</ele>
        <time>2020-10-02T12:36:57.000Z</time>
      </trkpt>
      <trkpt lat="44.0897" lon="3.13375">
        <ele>674.20001220703</ele>
        <time>2020-10-02T12:36:58.000Z</time>
      </trkpt>
      <trkpt lat="44.08966" lon="3.13372">
        <ele>673.20001220703</ele>
        <time>2020-10-02T12:36:59.000Z</time>
      </trkpt>
      <trkpt lat="44.08962" lon="3.13371">
        <ele>672</ele>
        <time>2020-10-02T12:37:00.000Z</time>
      </trkpt>
      <trkpt lat="44.08959" lon="3.13369">
        <ele>671</ele>
        <time>2020-10-02T12:37:01.000Z</time>
      </trkpt>
      <trkpt lat="44.08955" lon="3.13367">
        <ele>669</ele>
        <time>2020-10-02T12:37:03.000Z</time>
      </trkpt>
      <trkpt lat="44.08952" lon="3.13367">
        <ele>667.79998779297</ele>
        <time>2020-10-02T12:37:04.000Z</time>
      </trkpt>
      <trkpt lat="44.08945" lon="3.13368">
        <ele>666</ele>
        <time>2020-10-02T12:37:06.000Z</time>
      </trkpt>
      <trkpt lat="44.08936" lon="3.13368">
        <ele>664</ele>
        <time>2020-10-02T12:37:08.000Z</time>
      </trkpt>
      <trkpt lat="44.08931" lon="3.13368">
        <ele>662</ele>
        <time>2020-10-02T12:37:09.000Z</time>
      </trkpt>
      <trkpt lat="44.08921" lon="3.13368">
        <ele>659.79998779297</ele>
        <time>2020-10-02T12:37:11.000Z</time>
      </trkpt>
      <trkpt lat="44.08909" lon="3.13365">
        <ele>658.20001220703</ele>
        <time>2020-10-02T12:37:13.000Z</time>
      </trkpt>
      <trkpt lat="44.08904" lon="3.13362">
        <ele>657.40002441406</ele>
        <time>2020-10-02T12:37:14.000Z</time>
      </trkpt>
      <trkpt lat="44.08898" lon="3.13359">
        <ele>656.40002441406</ele>
        <time>2020-10-02T12:37:15.000Z</time>
      </trkpt>
      <trkpt lat="44.08893" lon="3.13357">
        <ele>654.79998779297</ele>
        <time>2020-10-02T12:37:17.000Z</time>
      </trkpt>
      <trkpt lat="44.08887" lon="3.13357">
        <ele>652.40002441406</ele>
        <time>2020-10-02T12:37:19.000Z</time>
      </trkpt>
      <trkpt lat="44.08881" lon="3.13354">
        <ele>650.59997558594</ele>
        <time>2020-10-02T12:37:21.000Z</time>
      </trkpt>
      <trkpt lat="44.0887" lon="3.13352">
        <ele>648.59997558594</ele>
        <time>2020-10-02T12:37:23.000Z</time>
      </trkpt>
      <trkpt lat="44.0886" lon="3.13349">
        <ele>647.20001220703</ele>
        <time>2020-10-02T12:37:25.000Z</time>
      </trkpt>
      <trkpt lat="44.08849" lon="3.13344">
        <ele>645.40002441406</ele>
        <time>2020-10-02T12:37:27.000Z</time>
      </trkpt>
      <trkpt lat="44.08839" lon="3.13338">
        <ele>643.79998779297</ele>
        <time>2020-10-02T12:37:29.000Z</time>
      </trkpt>
      <trkpt lat="44.08832" lon="3.13337">
        <ele>642.59997558594</ele>
        <time>2020-10-02T12:37:30.000Z</time>
      </trkpt>
      <trkpt lat="44.08827" lon="3.13335">
        <ele>640.79998779297</ele>
        <time>2020-10-02T12:37:31.000Z</time>
      </trkpt>
      <trkpt lat="44.08826" lon="3.13331">
        <ele>639</ele>
        <time>2020-10-02T12:37:32.000Z</time>
      </trkpt>
      <trkpt lat="44.08824" lon="3.13329">
        <ele>637.40002441406</ele>
        <time>2020-10-02T12:37:33.000Z</time>
      </trkpt>
      <trkpt lat="44.08825" lon="3.13327">
        <ele>636.20001220703</ele>
        <time>2020-10-02T12:37:34.000Z</time>
      </trkpt>
      <trkpt lat="44.08827" lon="3.13326">
        <ele>634.40002441406</ele>
        <time>2020-10-02T12:37:35.000Z</time>
      </trkpt>
      <trkpt lat="44.08828" lon="3.13324">
        <ele>632.79998779297</ele>
        <time>2020-10-02T12:37:36.000Z</time>
      </trkpt>
      <trkpt lat="44.08831" lon="3.13321">
        <ele>629.20001220703</ele>
        <time>2020-10-02T12:37:37.000Z</time>
      </trkpt>
      <trkpt lat="44.08833" lon="3.13318">
        <ele>627.59997558594</ele>
        <time>2020-10-02T12:37:38.000Z</time>
      </trkpt>
      <trkpt lat="44.08835" lon="3.13315">
        <ele>625.79998779297</ele>
        <time>2020-10-02T12:37:39.000Z</time>
      </trkpt>
      <trkpt lat="44.08838" lon="3.13312">
        <ele>624.59997558594</ele>
        <time>2020-10-02T12:37:40.000Z</time>
      </trkpt>
      <trkpt lat="44.08841" lon="3.13309">
        <ele>623</ele>
        <time>2020-10-02T12:37:41.000Z</time>
      </trkpt>
      <trkpt lat="44.08844" lon="3.13306">
        <ele>621.79998779297</ele>
        <time>2020-10-02T12:37:42.000Z</time>
      </trkpt>
      <trkpt lat="44.08846" lon="3.13303">
        <ele>620.40002441406</ele>
        <time>2020-10-02T12:37:43.000Z</time>
      </trkpt>
      <trkpt lat="44.08848" lon="3.13301">
        <ele>619</ele>
        <time>2020-10-02T12:37:44.000Z</time>
      </trkpt>
      <trkpt lat="44.08852" lon="3.133">
        <ele>617.59997558594</ele>
        <time>2020-10-02T12:37:45.000Z</time>
      </trkpt>
      <trkpt lat="44.08856" lon="3.13298">
        <ele>616.40002441406</ele>
        <time>2020-10-02T12:37:46.000Z</time>
      </trkpt>
      <trkpt lat="44.08858" lon="3.13297">
        <ele>615</ele>
        <time>2020-10-02T12:37:47.000Z</time>
      </trkpt>
      <trkpt lat="44.0886" lon="3.13295">
        <ele>613.20001220703</ele>
        <time>2020-10-02T12:37:48.000Z</time>
      </trkpt>
      <trkpt lat="44.08861" lon="3.13292">
        <ele>611.79998779297</ele>
        <time>2020-10-02T12:37:49.000Z</time>
      </trkpt>
      <trkpt lat="44.08862" lon="3.1329">
        <ele>610.59997558594</ele>
        <time>2020-10-02T12:37:50.000Z</time>
      </trkpt>
      <trkpt lat="44.08864" lon="3.13288">
        <ele>609.20001220703</ele>
        <time>2020-10-02T12:37:51.000Z</time>
      </trkpt>
      <trkpt lat="44.08867" lon="3.13287">
        <ele>607.79998779297</ele>
        <time>2020-10-02T12:37:52.000Z</time>
      </trkpt>
      <trkpt lat="44.08869" lon="3.13283">
        <ele>606.40002441406</ele>
        <time>2020-10-02T12:37:53.000Z</time>
      </trkpt>
      <trkpt lat="44.08871" lon="3.1328">
        <ele>605</ele>
        <time>2020-10-02T12:37:54.000Z</time>
      </trkpt>
      <trkpt lat="44.08873" lon="3.13274">
        <ele>603.40002441406</ele>
        <time>2020-10-02T12:37:55.000Z</time>
      </trkpt>
      <trkpt lat="44.08875" lon="3.13271">
        <ele>601.79998779297</ele>
        <time>2020-10-02T12:37:56.000Z</time>
      </trkpt>
      <trkpt lat="44.08877" lon="3.13268">
        <ele>600.79998779297</ele>
        <time>2020-10-02T12:37:57.000Z</time>
      </trkpt>
      <trkpt lat="44.08879" lon="3.13264">
        <ele>599</ele>
        <time>2020-10-02T12:37:59.000Z</time>
      </trkpt>
      <trkpt lat="44.08879" lon="3.1326">
        <ele>598.20001220703</ele>
        <time>2020-10-02T12:38:00.000Z</time>
      </trkpt>
      <trkpt lat="44.08881" lon="3.13256">
        <ele>597.20001220703</ele>
        <time>2020-10-02T12:38:01.000Z</time>
      </trkpt>
      <trkpt lat="44.08885" lon="3.13248">
        <ele>595.20001220703</ele>
        <time>2020-10-02T12:38:03.000Z</time>
      </trkpt>
      <trkpt lat="44.08887" lon="3.13244">
        <ele>594.20001220703</ele>
        <time>2020-10-02T12:38:04.000Z</time>
      </trkpt>
      <trkpt lat="44.0889" lon="3.13241">
        <ele>593</ele>
        <time>2020-10-02T12:38:05.000Z</time>
      </trkpt>
      <trkpt lat="44.08893" lon="3.13237">
        <ele>591.20001220703</ele>
        <time>2020-10-02T12:38:06.000Z</time>
      </trkpt>
      <trkpt lat="44.089" lon="3.1323">
        <ele>589.79998779297</ele>
        <time>2020-10-02T12:38:08.000Z</time>
      </trkpt>
      <trkpt lat="44.08904" lon="3.13226">
        <ele>588.59997558594</ele>
        <time>2020-10-02T12:38:09.000Z</time>
      </trkpt>
      <trkpt lat="44.08909" lon="3.13218">
        <ele>587.40002441406</ele>
        <time>2020-10-02T12:38:10.000Z</time>
      </trkpt>
      <trkpt lat="44.08914" lon="3.13211">
        <ele>586</ele>
        <time>2020-10-02T12:38:11.000Z</time>
      </trkpt>
      <trkpt lat="44.0892" lon="3.13202">
        <ele>584.79998779297</ele>
        <time>2020-10-02T12:38:12.000Z</time>
      </trkpt>
      <trkpt lat="44.08925" lon="3.13195">
        <ele>583.79998779297</ele>
        <time>2020-10-02T12:38:13.000Z</time>
      </trkpt>
      <trkpt lat="44.0893" lon="3.13188">
        <ele>582.20001220703</ele>
        <time>2020-10-02T12:38:14.000Z</time>
      </trkpt>
      <trkpt lat="44.08935" lon="3.13179">
        <ele>581</ele>
        <time>2020-10-02T12:38:15.000Z</time>
      </trkpt>
      <trkpt lat="44.0894" lon="3.13167">
        <ele>579.79998779297</ele>
        <time>2020-10-02T12:38:16.000Z</time>
      </trkpt>
      <trkpt lat="44.08945" lon="3.13161">
        <ele>578.20001220703</ele>
        <time>2020-10-02T12:38:17.000Z</time>
      </trkpt>
      <trkpt lat="44.08951" lon="3.13154">
        <ele>576.59997558594</ele>
        <time>2020-10-02T12:38:18.000Z</time>
      </trkpt>
      <trkpt lat="44.08956" lon="3.13147">
        <ele>574.79998779297</ele>
        <time>2020-10-02T12:38:19.000Z</time>
      </trkpt>
      <trkpt lat="44.08962" lon="3.1314">
        <ele>573.40002441406</ele>
        <time>2020-10-02T12:38:20.000Z</time>
      </trkpt>
      <trkpt lat="44.08967" lon="3.13133">
        <ele>571.79998779297</ele>
        <time>2020-10-02T12:38:21.000Z</time>
      </trkpt>
      <trkpt lat="44.08972" lon="3.13128">
        <ele>570.79998779297</ele>
        <time>2020-10-02T12:38:22.000Z</time>
      </trkpt>
      <trkpt lat="44.08977" lon="3.13123">
        <ele>569.20001220703</ele>
        <time>2020-10-02T12:38:23.000Z</time>
      </trkpt>
      <trkpt lat="44.08981" lon="3.13118">
        <ele>567.40002441406</ele>
        <time>2020-10-02T12:38:24.000Z</time>
      </trkpt>
      <trkpt lat="44.08986" lon="3.13114">
        <ele>566.20001220703</ele>
        <time>2020-10-02T12:38:25.000Z</time>
      </trkpt>
      <trkpt lat="44.08991" lon="3.1311">
        <ele>564.20001220703</ele>
        <time>2020-10-02T12:38:26.000Z</time>
      </trkpt>
      <trkpt lat="44.08995" lon="3.13106">
        <ele>562</ele>
        <time>2020-10-02T12:38:27.000Z</time>
      </trkpt>
      <trkpt lat="44.09" lon="3.13102">
        <ele>560</ele>
        <time>2020-10-02T12:38:28.000Z</time>
      </trkpt>
      <trkpt lat="44.09005" lon="3.13098">
        <ele>558.20001220703</ele>
        <time>2020-10-02T12:38:29.000Z</time>
      </trkpt>
      <trkpt lat="44.0901" lon="3.13095">
        <ele>557</ele>
        <time>2020-10-02T12:38:30.000Z</time>
      </trkpt>
      <trkpt lat="44.09014" lon="3.13093">
        <ele>556</ele>
        <time>2020-10-02T12:38:31.000Z</time>
      </trkpt>
      <trkpt lat="44.09019" lon="3.13091">
        <ele>555.20001220703</ele>
        <time>2020-10-02T12:38:32.000Z</time>
      </trkpt>
      <trkpt lat="44.09023" lon="3.13088">
        <ele>554</ele>
        <time>2020-10-02T12:38:33.000Z</time>
      </trkpt>
      <trkpt lat="44.09027" lon="3.13086">
        <ele>552.40002441406</ele>
        <time>2020-10-02T12:38:34.000Z</time>
      </trkpt>
      <trkpt lat="44.0903" lon="3.13084">
        <ele>549.40002441406</ele>
        <time>2020-10-02T12:38:35.000Z</time>
      </trkpt>
      <trkpt lat="44.09033" lon="3.13081">
        <ele>547.59997558594</ele>
        <time>2020-10-02T12:38:36.000Z</time>
      </trkpt>
      <trkpt lat="44.09037" lon="3.13077">
        <ele>546</ele>
        <time>2020-10-02T12:38:37.000Z</time>
      </trkpt>
      <trkpt lat="44.09042" lon="3.13075">
        <ele>545</ele>
        <time>2020-10-02T12:38:38.000Z</time>
      </trkpt>
      <trkpt lat="44.09047" lon="3.13072">
        <ele>543.59997558594</ele>
        <time>2020-10-02T12:38:39.000Z</time>
      </trkpt>
      <trkpt lat="44.09052" lon="3.13069">
        <ele>541.59997558594</ele>
        <time>2020-10-02T12:38:40.000Z</time>
      </trkpt>
      <trkpt lat="44.09057" lon="3.13067">
        <ele>539.79998779297</ele>
        <time>2020-10-02T12:38:41.000Z</time>
      </trkpt>
      <trkpt lat="44.09061" lon="3.13066">
        <ele>538.40002441406</ele>
        <time>2020-10-02T12:38:42.000Z</time>
      </trkpt>
      <trkpt lat="44.09064" lon="3.13061">
        <ele>537.20001220703</ele>
        <time>2020-10-02T12:38:43.000Z</time>
      </trkpt>
      <trkpt lat="44.09067" lon="3.13058">
        <ele>535.79998779297</ele>
        <time>2020-10-02T12:38:44.000Z</time>
      </trkpt>
      <trkpt lat="44.09068" lon="3.13061">
        <ele>534.59997558594</ele>
        <time>2020-10-02T12:38:45.000Z</time>
      </trkpt>
      <trkpt lat="44.09068" lon="3.13063">
        <ele>532.79998779297</ele>
        <time>2020-10-02T12:38:46.000Z</time>
      </trkpt>
      <trkpt lat="44.09067" lon="3.13065">
        <ele>531</ele>
        <time>2020-10-02T12:38:47.000Z</time>
      </trkpt>
      <trkpt lat="44.09066" lon="3.13068">
        <ele>529</ele>
        <time>2020-10-02T12:38:48.000Z</time>
      </trkpt>
      <trkpt lat="44.09067" lon="3.1307">
        <ele>527.40002441406</ele>
        <time>2020-10-02T12:38:49.000Z</time>
      </trkpt>
      <trkpt lat="44.09068" lon="3.1307">
        <ele>525.79998779297</ele>
        <time>2020-10-02T12:38:50.000Z</time>
      </trkpt>
      <trkpt lat="44.09069" lon="3.13066">
        <ele>524</ele>
        <time>2020-10-02T12:38:51.000Z</time>
      </trkpt>
      <trkpt lat="44.09069" lon="3.13065">
        <ele>522.79998779297</ele>
        <time>2020-10-02T12:38:52.000Z</time>
      </trkpt>
      <trkpt lat="44.09069" lon="3.13067">
        <ele>521.59997558594</ele>
        <time>2020-10-02T12:38:53.000Z</time>
      </trkpt>
      <trkpt lat="44.0907" lon="3.13068">
        <ele>520.40002441406</ele>
        <time>2020-10-02T12:38:54.000Z</time>
      </trkpt>
      <trkpt lat="44.09071" lon="3.13069">
        <ele>519</ele>
        <time>2020-10-02T12:38:55.000Z</time>
      </trkpt>
      <trkpt lat="44.09073" lon="3.13068">
        <ele>518</ele>
        <time>2020-10-02T12:38:56.000Z</time>
      </trkpt>
      <trkpt lat="44.09079" lon="3.13063">
        <ele>515.79998779297</ele>
        <time>2020-10-02T12:38:58.000Z</time>
      </trkpt>
      <trkpt lat="44.09081" lon="3.13059">
        <ele>514.59997558594</ele>
        <time>2020-10-02T12:38:59.000Z</time>
      </trkpt>
      <trkpt lat="44.09081" lon="3.13056">
        <ele>513.40002441406</ele>
        <time>2020-10-02T12:39:00.000Z</time>
      </trkpt>
      <trkpt lat="44.09082" lon="3.1305">
        <ele>511</ele>
        <time>2020-10-02T12:39:02.000Z</time>
      </trkpt>
      <trkpt lat="44.09083" lon="3.13047">
        <ele>509.20001220703</ele>
        <time>2020-10-02T12:39:03.000Z</time>
      </trkpt>
      <trkpt lat="44.09085" lon="3.13041">
        <ele>507.60000610352</ele>
        <time>2020-10-02T12:39:05.000Z</time>
      </trkpt>
      <trkpt lat="44.09088" lon="3.13039">
        <ele>506.60000610352</ele>
        <time>2020-10-02T12:39:06.000Z</time>
      </trkpt>
      <trkpt lat="44.09091" lon="3.13037">
        <ele>505.79998779297</ele>
        <time>2020-10-02T12:39:07.000Z</time>
      </trkpt>
      <trkpt lat="44.09108" lon="3.13032">
        <ele>504</ele>
        <time>2020-10-02T12:39:10.000Z</time>
      </trkpt>
      <trkpt lat="44.09123" lon="3.13028">
        <ele>502.79998779297</ele>
        <time>2020-10-02T12:39:12.000Z</time>
      </trkpt>
      <trkpt lat="44.0913" lon="3.13025">
        <ele>501.60000610352</ele>
        <time>2020-10-02T12:39:13.000Z</time>
      </trkpt>
      <trkpt lat="44.09137" lon="3.13023">
        <ele>500.20001220703</ele>
        <time>2020-10-02T12:39:14.000Z</time>
      </trkpt>
      <trkpt lat="44.09147" lon="3.13022">
        <ele>498.79998779297</ele>
        <time>2020-10-02T12:39:15.000Z</time>
      </trkpt>
      <trkpt lat="44.09166" lon="3.13021">
        <ele>497.20001220703</ele>
        <time>2020-10-02T12:39:17.000Z</time>
      </trkpt>
      <trkpt lat="44.09175" lon="3.1302">
        <ele>496.39999389648</ele>
        <time>2020-10-02T12:39:18.000Z</time>
      </trkpt>
      <trkpt lat="44.09182" lon="3.13018">
        <ele>495.20001220703</ele>
        <time>2020-10-02T12:39:19.000Z</time>
      </trkpt>
      <trkpt lat="44.0919" lon="3.13015">
        <ele>494.20001220703</ele>
        <time>2020-10-02T12:39:20.000Z</time>
      </trkpt>
      <trkpt lat="44.09197" lon="3.13011">
        <ele>492.79998779297</ele>
        <time>2020-10-02T12:39:21.000Z</time>
      </trkpt>
      <trkpt lat="44.09211" lon="3.13">
        <ele>491.20001220703</ele>
        <time>2020-10-02T12:39:23.000Z</time>
      </trkpt>
      <trkpt lat="44.09226" lon="3.1299">
        <ele>490.20001220703</ele>
        <time>2020-10-02T12:39:25.000Z</time>
      </trkpt>
      <trkpt lat="44.09233" lon="3.12987">
        <ele>489.60000610352</ele>
        <time>2020-10-02T12:39:26.000Z</time>
      </trkpt>
      <trkpt lat="44.09241" lon="3.12983">
        <ele>488</ele>
        <time>2020-10-02T12:39:27.000Z</time>
      </trkpt>
      <trkpt lat="44.09249" lon="3.12979">
        <ele>486.39999389648</ele>
        <time>2020-10-02T12:39:28.000Z</time>
      </trkpt>
      <trkpt lat="44.09257" lon="3.12974">
        <ele>485.20001220703</ele>
        <time>2020-10-02T12:39:29.000Z</time>
      </trkpt>
      <trkpt lat="44.09265" lon="3.12968">
        <ele>483.79998779297</ele>
        <time>2020-10-02T12:39:30.000Z</time>
      </trkpt>
      <trkpt lat="44.09272" lon="3.12964">
        <ele>481</ele>
        <time>2020-10-02T12:39:31.000Z</time>
      </trkpt>
      <trkpt lat="44.09276" lon="3.1296">
        <ele>480.20001220703</ele>
        <time>2020-10-02T12:39:32.000Z</time>
      </trkpt>
      <trkpt lat="44.0928" lon="3.12954">
        <ele>478.79998779297</ele>
        <time>2020-10-02T12:39:33.000Z</time>
      </trkpt>
      <trkpt lat="44.09279" lon="3.12951">
        <ele>477.20001220703</ele>
        <time>2020-10-02T12:39:34.000Z</time>
      </trkpt>
      <trkpt lat="44.09276" lon="3.12948">
        <ele>475.79998779297</ele>
        <time>2020-10-02T12:39:35.000Z</time>
      </trkpt>
      <trkpt lat="44.09275" lon="3.12944">
        <ele>474.60000610352</ele>
        <time>2020-10-02T12:39:36.000Z</time>
      </trkpt>
      <trkpt lat="44.09276" lon="3.12938">
        <ele>473.60000610352</ele>
        <time>2020-10-02T12:39:37.000Z</time>
      </trkpt>
      <trkpt lat="44.09277" lon="3.12936">
        <ele>472.39999389648</ele>
        <time>2020-10-02T12:39:38.000Z</time>
      </trkpt>
      <trkpt lat="44.09279" lon="3.12931">
        <ele>471</ele>
        <time>2020-10-02T12:39:40.000Z</time>
      </trkpt>
      <trkpt lat="44.0928" lon="3.12929">
        <ele>470.39999389648</ele>
        <time>2020-10-02T12:39:41.000Z</time>
      </trkpt>
      <trkpt lat="44.09281" lon="3.12928">
        <ele>469.39999389648</ele>
        <time>2020-10-02T12:39:42.000Z</time>
      </trkpt>
      <trkpt lat="44.09286" lon="3.12926">
        <ele>468</ele>
        <time>2020-10-02T12:39:44.000Z</time>
      </trkpt>
      <trkpt lat="44.09293" lon="3.12922">
        <ele>467.20001220703</ele>
        <time>2020-10-02T12:39:47.000Z</time>
      </trkpt>
      <trkpt lat="44.09297" lon="3.12921">
        <ele>467</ele>
        <time>2020-10-02T12:39:49.000Z</time>
      </trkpt>
      <trkpt lat="44.09305" lon="3.12917">
        <ele>466</ele>
        <time>2020-10-02T12:39:53.000Z</time>
      </trkpt>
      <trkpt lat="44.09305" lon="3.12918">
        <ele>465.79998779297</ele>
        <time>2020-10-02T12:39:54.000Z</time>
      </trkpt>
      <trkpt lat="44.09304" lon="3.12917">
        <ele>464.39999389648</ele>
        <time>2020-10-02T12:39:57.000Z</time>
      </trkpt>
      <trkpt lat="44.09303" lon="3.12917">
        <ele>463</ele>
        <time>2020-10-02T12:40:00.000Z</time>
      </trkpt>
      <trkpt lat="44.09302" lon="3.12916">
        <ele>463</ele>
        <time>2020-10-02T12:40:01.000Z</time>
      </trkpt>
      <trkpt lat="44.09302" lon="3.12917">
        <ele>462.79998779297</ele>
        <time>2020-10-02T12:40:09.000Z</time>
      </trkpt>
      <trkpt lat="44.09304" lon="3.12916">
        <ele>462.60000610352</ele>
        <time>2020-10-02T12:40:24.000Z</time>
      </trkpt>
      <trkpt lat="44.09308" lon="3.12914">
        <ele>462</ele>
        <time>2020-10-02T12:40:40.000Z</time>
      </trkpt>
      <trkpt lat="44.09303" lon="3.12916">
        <ele>462</ele>
        <time>2020-10-02T12:40:54.000Z</time>
      </trkpt>
      <trkpt lat="44.093" lon="3.12915">
        <ele>462.60000610352</ele>
        <time>2020-10-02T12:41:03.000Z</time>
      </trkpt>
      <trkpt lat="44.09298" lon="3.12915">
        <ele>462.79998779297</ele>
        <time>2020-10-02T12:41:15.000Z</time>
      </trkpt>
      <trkpt lat="44.09296" lon="3.12916">
        <ele>463</ele>
        <time>2020-10-02T12:41:30.000Z</time>
      </trkpt>
      <trkpt lat="44.09295" lon="3.12916">
        <ele>463</ele>
        <time>2020-10-02T12:41:48.000Z</time>
      </trkpt>
      <trkpt lat="44.09295" lon="3.12915">
        <ele>463</ele>
        <time>2020-10-02T12:42:05.000Z</time>
      </trkpt>
      <trkpt lat="44.09296" lon="3.12913">
        <ele>463.20001220703</ele>
        <time>2020-10-02T12:42:12.000Z</time>
      </trkpt>
      <trkpt lat="44.09295" lon="3.12913">
        <ele>463.20001220703</ele>
        <time>2020-10-02T12:42:32.000Z</time>
      </trkpt>
      <trkpt lat="44.09294" lon="3.12915">
        <ele>463.20001220703</ele>
        <time>2020-10-02T12:42:47.000Z</time>
      </trkpt>
      <trkpt lat="44.09302" lon="3.12915">
        <ele>463.20001220703</ele>
        <time>2020-10-02T12:42:53.000Z</time>
      </trkpt>
      <trkpt lat="44.09304" lon="3.12922">
        <ele>463.20001220703</ele>
        <time>2020-10-02T12:42:57.000Z</time>
      </trkpt>
      <trkpt lat="44.09302" lon="3.12921">
        <ele>463</ele>
        <time>2020-10-02T12:43:00.000Z</time>
      </trkpt>
      <trkpt lat="44.09299" lon="3.1292">
        <ele>462.79998779297</ele>
        <time>2020-10-02T12:43:02.000Z</time>
      </trkpt>
      <trkpt lat="44.09295" lon="3.12919">
        <ele>462.79998779297</ele>
        <time>2020-10-02T12:43:04.000Z</time>
      </trkpt>
      <trkpt lat="44.09293" lon="3.12919">
        <ele>462.79998779297</ele>
        <time>2020-10-02T12:43:08.000Z</time>
      </trkpt>
      <trkpt lat="44.09293" lon="3.12916">
        <ele>463</ele>
        <time>2020-10-02T12:43:16.000Z</time>
      </trkpt>
      <trkpt lat="44.09297" lon="3.12915">
        <ele>463</ele>
        <time>2020-10-02T12:43:19.000Z</time>
      </trkpt>
      <trkpt lat="44.09301" lon="3.12914">
        <ele>463</ele>
        <time>2020-10-02T12:43:21.000Z</time>
      </trkpt>
      <trkpt lat="44.09307" lon="3.12912">
        <ele>463</ele>
        <time>2020-10-02T12:43:23.000Z</time>
      </trkpt>
      <trkpt lat="44.09313" lon="3.12911">
        <ele>463</ele>
        <time>2020-10-02T12:43:25.000Z</time>
      </trkpt>
      <trkpt lat="44.09327" lon="3.12908">
        <ele>462.79998779297</ele>
        <time>2020-10-02T12:43:28.000Z</time>
      </trkpt>
      <trkpt lat="44.09341" lon="3.12903">
        <ele>461</ele>
        <time>2020-10-02T12:43:33.000Z</time>
      </trkpt>
      <trkpt lat="44.09346" lon="3.12904">
        <ele>460</ele>
        <time>2020-10-02T12:43:35.000Z</time>
      </trkpt>
      <trkpt lat="44.09356" lon="3.12911">
        <ele>459.39999389648</ele>
        <time>2020-10-02T12:43:38.000Z</time>
      </trkpt>
      <trkpt lat="44.09363" lon="3.12917">
        <ele>458.60000610352</ele>
        <time>2020-10-02T12:43:40.000Z</time>
      </trkpt>
      <trkpt lat="44.09369" lon="3.12924">
        <ele>457.60000610352</ele>
        <time>2020-10-02T12:43:42.000Z</time>
      </trkpt>
      <trkpt lat="44.09371" lon="3.12926">
        <ele>457</ele>
        <time>2020-10-02T12:43:43.000Z</time>
      </trkpt>
      <trkpt lat="44.09375" lon="3.12927">
        <ele>455.79998779297</ele>
        <time>2020-10-02T12:43:46.000Z</time>
      </trkpt>
      <trkpt lat="44.09376" lon="3.12927">
        <ele>454.39999389648</ele>
        <time>2020-10-02T12:43:49.000Z</time>
      </trkpt>
      <trkpt lat="44.09375" lon="3.12926">
        <ele>452.79998779297</ele>
        <time>2020-10-02T12:43:51.000Z</time>
      </trkpt>
      <trkpt lat="44.09374" lon="3.12925">
        <ele>452.39999389648</ele>
        <time>2020-10-02T12:43:53.000Z</time>
      </trkpt>
      <trkpt lat="44.09372" lon="3.12921">
        <ele>452.20001220703</ele>
        <time>2020-10-02T12:43:59.000Z</time>
      </trkpt>
      <trkpt lat="44.09373" lon="3.12924">
        <ele>452.60000610352</ele>
        <time>2020-10-02T12:44:04.000Z</time>
      </trkpt>
      <trkpt lat="44.09375" lon="3.12926">
        <ele>452.79998779297</ele>
        <time>2020-10-02T12:44:05.000Z</time>
      </trkpt>
      <trkpt lat="44.09381" lon="3.12933">
        <ele>452.79998779297</ele>
        <time>2020-10-02T12:44:09.000Z</time>
      </trkpt>
      <trkpt lat="44.09384" lon="3.12937">
        <ele>452.79998779297</ele>
        <time>2020-10-02T12:44:11.000Z</time>
      </trkpt>
      <trkpt lat="44.09389" lon="3.12941">
        <ele>452.39999389648</ele>
        <time>2020-10-02T12:44:15.000Z</time>
      </trkpt>
      <trkpt lat="44.09392" lon="3.12943">
        <ele>451.60000610352</ele>
        <time>2020-10-02T12:44:17.000Z</time>
      </trkpt>
      <trkpt lat="44.09393" lon="3.12942">
        <ele>450.39999389648</ele>
        <time>2020-10-02T12:44:20.000Z</time>
      </trkpt>
      <trkpt lat="44.09392" lon="3.12943">
        <ele>450.20001220703</ele>
        <time>2020-10-02T12:44:21.000Z</time>
      </trkpt>
      <trkpt lat="44.09391" lon="3.12943">
        <ele>450.20001220703</ele>
        <time>2020-10-02T12:44:28.000Z</time>
      </trkpt>
      <trkpt lat="44.09391" lon="3.12942">
        <ele>450.20001220703</ele>
        <time>2020-10-02T12:44:44.000Z</time>
      </trkpt>
      <trkpt lat="44.0939" lon="3.12942">
        <ele>450</ele>
        <time>2020-10-02T12:45:01.000Z</time>
      </trkpt>
      <trkpt lat="44.09391" lon="3.12946">
        <ele>450.20001220703</ele>
        <time>2020-10-02T12:45:25.000Z</time>
      </trkpt>
      <trkpt lat="44.09402" lon="3.12951">
        <ele>450.20001220703</ele>
        <time>2020-10-02T12:45:33.000Z</time>
      </trkpt>
      <trkpt lat="44.09418" lon="3.12954">
        <ele>450</ele>
        <time>2020-10-02T12:45:37.000Z</time>
      </trkpt>
      <trkpt lat="44.09431" lon="3.12953">
        <ele>450</ele>
        <time>2020-10-02T12:45:40.000Z</time>
      </trkpt>
      <trkpt lat="44.09436" lon="3.12951">
        <ele>450</ele>
        <time>2020-10-02T12:45:41.000Z</time>
      </trkpt>
      <trkpt lat="44.0945" lon="3.1294">
        <ele>448</ele>
        <time>2020-10-02T12:45:45.000Z</time>
      </trkpt>
      <trkpt lat="44.09453" lon="3.12937">
        <ele>446.79998779297</ele>
        <time>2020-10-02T12:45:46.000Z</time>
      </trkpt>
      <trkpt lat="44.09458" lon="3.12934">
        <ele>445.20001220703</ele>
        <time>2020-10-02T12:45:48.000Z</time>
      </trkpt>
      <trkpt lat="44.0946" lon="3.12931">
        <ele>444.39999389648</ele>
        <time>2020-10-02T12:45:49.000Z</time>
      </trkpt>
      <trkpt lat="44.09463" lon="3.12928">
        <ele>444</ele>
        <time>2020-10-02T12:45:50.000Z</time>
      </trkpt>
      <trkpt lat="44.09474" lon="3.12916">
        <ele>442.60000610352</ele>
        <time>2020-10-02T12:45:54.000Z</time>
      </trkpt>
      <trkpt lat="44.09477" lon="3.12913">
        <ele>442</ele>
        <time>2020-10-02T12:45:55.000Z</time>
      </trkpt>
      <trkpt lat="44.09484" lon="3.12905">
        <ele>441.39999389648</ele>
        <time>2020-10-02T12:45:57.000Z</time>
      </trkpt>
      <trkpt lat="44.09497" lon="3.1289">
        <ele>440</ele>
        <time>2020-10-02T12:46:01.000Z</time>
      </trkpt>
      <trkpt lat="44.09503" lon="3.12875">
        <ele>438.79998779297</ele>
        <time>2020-10-02T12:46:05.000Z</time>
      </trkpt>
      <trkpt lat="44.09504" lon="3.12872">
        <ele>438.60000610352</ele>
        <time>2020-10-02T12:46:06.000Z</time>
      </trkpt>
      <trkpt lat="44.09503" lon="3.12866">
        <ele>437.60000610352</ele>
        <time>2020-10-02T12:46:08.000Z</time>
      </trkpt>
      <trkpt lat="44.09503" lon="3.12861">
        <ele>436.39999389648</ele>
        <time>2020-10-02T12:46:10.000Z</time>
      </trkpt>
      <trkpt lat="44.09503" lon="3.12859">
        <ele>435.79998779297</ele>
        <time>2020-10-02T12:46:11.000Z</time>
      </trkpt>
      <trkpt lat="44.09505" lon="3.12855">
        <ele>435</ele>
        <time>2020-10-02T12:46:13.000Z</time>
      </trkpt>
      <trkpt lat="44.09511" lon="3.12851">
        <ele>434.20001220703</ele>
        <time>2020-10-02T12:46:15.000Z</time>
      </trkpt>
      <trkpt lat="44.09519" lon="3.12838">
        <ele>433.79998779297</ele>
        <time>2020-10-02T12:46:20.000Z</time>
      </trkpt>
      <trkpt lat="44.09523" lon="3.12831">
        <ele>434.20001220703</ele>
        <time>2020-10-02T12:46:27.000Z</time>
      </trkpt>
      <trkpt lat="44.09528" lon="3.12828">
        <ele>435.60000610352</ele>
        <time>2020-10-02T12:46:34.000Z</time>
      </trkpt>
      <trkpt lat="44.0953" lon="3.12825">
        <ele>436</ele>
        <time>2020-10-02T12:46:38.000Z</time>
      </trkpt>
      <trkpt lat="44.09534" lon="3.12823">
        <ele>436.39999389648</ele>
        <time>2020-10-02T12:46:41.000Z</time>
      </trkpt>
      <trkpt lat="44.09536" lon="3.12823">
        <ele>436.39999389648</ele>
        <time>2020-10-02T12:46:42.000Z</time>
      </trkpt>
      <trkpt lat="44.0955" lon="3.12821">
        <ele>436.60000610352</ele>
        <time>2020-10-02T12:46:45.000Z</time>
      </trkpt>
      <trkpt lat="44.09567" lon="3.12819">
        <ele>436.60000610352</ele>
        <time>2020-10-02T12:46:50.000Z</time>
      </trkpt>
      <trkpt lat="44.09573" lon="3.12813">
        <ele>436.20001220703</ele>
        <time>2020-10-02T12:46:55.000Z</time>
      </trkpt>
      <trkpt lat="44.09588" lon="3.12806">
        <ele>436.39999389648</ele>
        <time>2020-10-02T12:47:01.000Z</time>
      </trkpt>
      <trkpt lat="44.09604" lon="3.128">
        <ele>436.39999389648</ele>
        <time>2020-10-02T12:47:06.000Z</time>
      </trkpt>
      <trkpt lat="44.09624" lon="3.1279">
        <ele>436.20001220703</ele>
        <time>2020-10-02T12:47:12.000Z</time>
      </trkpt>
      <trkpt lat="44.09639" lon="3.12777">
        <ele>435.79998779297</ele>
        <time>2020-10-02T12:47:17.000Z</time>
      </trkpt>
      <trkpt lat="44.09648" lon="3.1277">
        <ele>434.79998779297</ele>
        <time>2020-10-02T12:47:20.000Z</time>
      </trkpt>
      <trkpt lat="44.0965" lon="3.12771">
        <ele>433.20001220703</ele>
        <time>2020-10-02T12:47:22.000Z</time>
      </trkpt>
      <trkpt lat="44.09651" lon="3.12771">
        <ele>432</ele>
        <time>2020-10-02T12:47:23.000Z</time>
      </trkpt>
      <trkpt lat="44.09656" lon="3.12772">
        <ele>430.60000610352</ele>
        <time>2020-10-02T12:47:25.000Z</time>
      </trkpt>
      <trkpt lat="44.09658" lon="3.12772">
        <ele>429.60000610352</ele>
        <time>2020-10-02T12:47:26.000Z</time>
      </trkpt>
      <trkpt lat="44.09661" lon="3.12773">
        <ele>428.79998779297</ele>
        <time>2020-10-02T12:47:27.000Z</time>
      </trkpt>
      <trkpt lat="44.09664" lon="3.12775">
        <ele>427.20001220703</ele>
        <time>2020-10-02T12:47:29.000Z</time>
      </trkpt>
      <trkpt lat="44.09669" lon="3.12776">
        <ele>426.20001220703</ele>
        <time>2020-10-02T12:47:31.000Z</time>
      </trkpt>
      <trkpt lat="44.09672" lon="3.12775">
        <ele>425</ele>
        <time>2020-10-02T12:47:33.000Z</time>
      </trkpt>
      <trkpt lat="44.09674" lon="3.12776">
        <ele>424.39999389648</ele>
        <time>2020-10-02T12:47:34.000Z</time>
      </trkpt>
      <trkpt lat="44.09678" lon="3.12778">
        <ele>423.79998779297</ele>
        <time>2020-10-02T12:47:35.000Z</time>
      </trkpt>
      <trkpt lat="44.0968" lon="3.1278">
        <ele>423.20001220703</ele>
        <time>2020-10-02T12:47:36.000Z</time>
      </trkpt>
      <trkpt lat="44.09682" lon="3.12782">
        <ele>422.60000610352</ele>
        <time>2020-10-02T12:47:37.000Z</time>
      </trkpt>
      <trkpt lat="44.09683" lon="3.12784">
        <ele>422</ele>
        <time>2020-10-02T12:47:38.000Z</time>
      </trkpt>
      <trkpt lat="44.09684" lon="3.12786">
        <ele>421.39999389648</ele>
        <time>2020-10-02T12:47:39.000Z</time>
      </trkpt>
      <trkpt lat="44.09686" lon="3.12788">
        <ele>420.79998779297</ele>
        <time>2020-10-02T12:47:40.000Z</time>
      </trkpt>
      <trkpt lat="44.09689" lon="3.12789">
        <ele>420.20001220703</ele>
        <time>2020-10-02T12:47:41.000Z</time>
      </trkpt>
      <trkpt lat="44.09695" lon="3.12794">
        <ele>418.60000610352</ele>
        <time>2020-10-02T12:47:43.000Z</time>
      </trkpt>
      <trkpt lat="44.09696" lon="3.12799">
        <ele>418</ele>
        <time>2020-10-02T12:47:44.000Z</time>
      </trkpt>
      <trkpt lat="44.09698" lon="3.12803">
        <ele>417.39999389648</ele>
        <time>2020-10-02T12:47:45.000Z</time>
      </trkpt>
      <trkpt lat="44.09702" lon="3.12808">
        <ele>416</ele>
        <time>2020-10-02T12:47:47.000Z</time>
      </trkpt>
      <trkpt lat="44.09703" lon="3.12811">
        <ele>415.60000610352</ele>
        <time>2020-10-02T12:47:48.000Z</time>
      </trkpt>
      <trkpt lat="44.09703" lon="3.12814">
        <ele>415</ele>
        <time>2020-10-02T12:47:49.000Z</time>
      </trkpt>
      <trkpt lat="44.09706" lon="3.1282">
        <ele>413.79998779297</ele>
        <time>2020-10-02T12:47:51.000Z</time>
      </trkpt>
      <trkpt lat="44.09712" lon="3.12824">
        <ele>412.39999389648</ele>
        <time>2020-10-02T12:47:53.000Z</time>
      </trkpt>
      <trkpt lat="44.09723" lon="3.12827">
        <ele>411</ele>
        <time>2020-10-02T12:47:55.000Z</time>
      </trkpt>
      <trkpt lat="44.0973" lon="3.12828">
        <ele>410.39999389648</ele>
        <time>2020-10-02T12:47:56.000Z</time>
      </trkpt>
      <trkpt lat="44.09735" lon="3.12829">
        <ele>409.60000610352</ele>
        <time>2020-10-02T12:47:57.000Z</time>
      </trkpt>
      <trkpt lat="44.09744" lon="3.12832">
        <ele>408.20001220703</ele>
        <time>2020-10-02T12:47:59.000Z</time>
      </trkpt>
      <trkpt lat="44.0975" lon="3.12839">
        <ele>407.20001220703</ele>
        <time>2020-10-02T12:48:01.000Z</time>
      </trkpt>
      <trkpt lat="44.09755" lon="3.1284">
        <ele>406.79998779297</ele>
        <time>2020-10-02T12:48:02.000Z</time>
      </trkpt>
      <trkpt lat="44.0976" lon="3.12841">
        <ele>406</ele>
        <time>2020-10-02T12:48:03.000Z</time>
      </trkpt>
      <trkpt lat="44.09768" lon="3.12843">
        <ele>404.20001220703</ele>
        <time>2020-10-02T12:48:05.000Z</time>
      </trkpt>
      <trkpt lat="44.09781" lon="3.12843">
        <ele>403</ele>
        <time>2020-10-02T12:48:07.000Z</time>
      </trkpt>
      <trkpt lat="44.09794" lon="3.12839">
        <ele>401.39999389648</ele>
        <time>2020-10-02T12:48:09.000Z</time>
      </trkpt>
      <trkpt lat="44.09804" lon="3.12833">
        <ele>401</ele>
        <time>2020-10-02T12:48:11.000Z</time>
      </trkpt>
      <trkpt lat="44.09807" lon="3.12832">
        <ele>399.79998779297</ele>
        <time>2020-10-02T12:48:13.000Z</time>
      </trkpt>
      <trkpt lat="44.09808" lon="3.12832">
        <ele>399.20001220703</ele>
        <time>2020-10-02T12:48:14.000Z</time>
      </trkpt>
      <trkpt lat="44.09807" lon="3.12832">
        <ele>398.60000610352</ele>
        <time>2020-10-02T12:48:15.000Z</time>
      </trkpt>
      <trkpt lat="44.09808" lon="3.12832">
        <ele>397.20001220703</ele>
        <time>2020-10-02T12:48:17.000Z</time>
      </trkpt>
      <trkpt lat="44.09808" lon="3.12832">
        <ele>396</ele>
        <time>2020-10-02T12:48:18.000Z</time>
      </trkpt>
      <trkpt lat="44.09809" lon="3.12832">
        <ele>394.60000610352</ele>
        <time>2020-10-02T12:48:20.000Z</time>
      </trkpt>
      <trkpt lat="44.09811" lon="3.12835">
        <ele>393.60000610352</ele>
        <time>2020-10-02T12:48:26.000Z</time>
      </trkpt>
      <trkpt lat="44.09814" lon="3.12834">
        <ele>393.60000610352</ele>
        <time>2020-10-02T12:48:31.000Z</time>
      </trkpt>
      <trkpt lat="44.09824" lon="3.12829">
        <ele>393.60000610352</ele>
        <time>2020-10-02T12:48:36.000Z</time>
      </trkpt>
      <trkpt lat="44.09833" lon="3.12827">
        <ele>392.60000610352</ele>
        <time>2020-10-02T12:48:41.000Z</time>
      </trkpt>
      <trkpt lat="44.09835" lon="3.12826">
        <ele>392.39999389648</ele>
        <time>2020-10-02T12:48:42.000Z</time>
      </trkpt>
      <trkpt lat="44.09842" lon="3.12824">
        <ele>391.60000610352</ele>
        <time>2020-10-02T12:48:45.000Z</time>
      </trkpt>
      <trkpt lat="44.09848" lon="3.12822">
        <ele>391.39999389648</ele>
        <time>2020-10-02T12:48:47.000Z</time>
      </trkpt>
      <trkpt lat="44.09857" lon="3.12816">
        <ele>391</ele>
        <time>2020-10-02T12:48:52.000Z</time>
      </trkpt>
      <trkpt lat="44.09866" lon="3.12811">
        <ele>390.79998779297</ele>
        <time>2020-10-02T12:48:57.000Z</time>
      </trkpt>
      <trkpt lat="44.09872" lon="3.12809">
        <ele>390.60000610352</ele>
        <time>2020-10-02T12:48:59.000Z</time>
      </trkpt>
      <trkpt lat="44.0988" lon="3.12805">
        <ele>389.79998779297</ele>
        <time>2020-10-02T12:49:02.000Z</time>
      </trkpt>
      <trkpt lat="44.09884" lon="3.12803">
        <ele>389.20001220703</ele>
        <time>2020-10-02T12:49:04.000Z</time>
      </trkpt>
      <trkpt lat="44.09893" lon="3.128">
        <ele>388</ele>
        <time>2020-10-02T12:49:07.000Z</time>
      </trkpt>
      <trkpt lat="44.09902" lon="3.12797">
        <ele>387</ele>
        <time>2020-10-02T12:49:11.000Z</time>
      </trkpt>
      <trkpt lat="44.09907" lon="3.12794">
        <ele>386.60000610352</ele>
        <time>2020-10-02T12:49:13.000Z</time>
      </trkpt>
      <trkpt lat="44.09924" lon="3.12788">
        <ele>386.60000610352</ele>
        <time>2020-10-02T12:49:17.000Z</time>
      </trkpt>
      <trkpt lat="44.09941" lon="3.12781">
        <ele>386.39999389648</ele>
        <time>2020-10-02T12:49:20.000Z</time>
      </trkpt>
      <trkpt lat="44.09945" lon="3.1278">
        <ele>386.20001220703</ele>
        <time>2020-10-02T12:49:21.000Z</time>
      </trkpt>
      <trkpt lat="44.09952" lon="3.12779">
        <ele>385.79998779297</ele>
        <time>2020-10-02T12:49:23.000Z</time>
      </trkpt>
      <trkpt lat="44.09953" lon="3.12778">
        <ele>385.60000610352</ele>
        <time>2020-10-02T12:49:24.000Z</time>
      </trkpt>
      <trkpt lat="44.09955" lon="3.12776">
        <ele>384.39999389648</ele>
        <time>2020-10-02T12:49:26.000Z</time>
      </trkpt>
      <trkpt lat="44.09955" lon="3.12774">
        <ele>383.39999389648</ele>
        <time>2020-10-02T12:49:29.000Z</time>
      </trkpt>
      <trkpt lat="44.09956" lon="3.12773">
        <ele>383.39999389648</ele>
        <time>2020-10-02T12:49:30.000Z</time>
      </trkpt>
      <trkpt lat="44.09955" lon="3.12772">
        <ele>383.60000610352</ele>
        <time>2020-10-02T12:49:43.000Z</time>
      </trkpt>
      <trkpt lat="44.09965" lon="3.12772">
        <ele>383.39999389648</ele>
        <time>2020-10-02T12:49:51.000Z</time>
      </trkpt>
      <trkpt lat="44.09979" lon="3.12774">
        <ele>384</ele>
        <time>2020-10-02T12:50:01.000Z</time>
      </trkpt>
      <trkpt lat="44.09981" lon="3.12775">
        <ele>384.20001220703</ele>
        <time>2020-10-02T12:50:02.000Z</time>
      </trkpt>
      <trkpt lat="44.09983" lon="3.12775">
        <ele>384.39999389648</ele>
        <time>2020-10-02T12:50:03.000Z</time>
      </trkpt>
      <trkpt lat="44.09995" lon="3.12775">
        <ele>385</ele>
        <time>2020-10-02T12:50:07.000Z</time>
      </trkpt>
      <trkpt lat="44.10002" lon="3.12777">
        <ele>385.20001220703</ele>
        <time>2020-10-02T12:50:10.000Z</time>
      </trkpt>
      <trkpt lat="44.1001" lon="3.12779">
        <ele>385.39999389648</ele>
        <time>2020-10-02T12:50:13.000Z</time>
      </trkpt>
      <trkpt lat="44.10029" lon="3.12788">
        <ele>386.20001220703</ele>
        <time>2020-10-02T12:50:20.000Z</time>
      </trkpt>
      <trkpt lat="44.10046" lon="3.12794">
        <ele>387.20001220703</ele>
        <time>2020-10-02T12:50:25.000Z</time>
      </trkpt>
      <trkpt lat="44.1005" lon="3.12795">
        <ele>387.39999389648</ele>
        <time>2020-10-02T12:50:26.000Z</time>
      </trkpt>
      <trkpt lat="44.10068" lon="3.128">
        <ele>388.60000610352</ele>
        <time>2020-10-02T12:50:32.000Z</time>
      </trkpt>
      <trkpt lat="44.1007" lon="3.12801">
        <ele>388.79998779297</ele>
        <time>2020-10-02T12:50:33.000Z</time>
      </trkpt>
      <trkpt lat="44.10082" lon="3.12806">
        <ele>389.79998779297</ele>
        <time>2020-10-02T12:50:39.000Z</time>
      </trkpt>
      <trkpt lat="44.10087" lon="3.12807">
        <ele>390.20001220703</ele>
        <time>2020-10-02T12:50:41.000Z</time>
      </trkpt>
      <trkpt lat="44.10096" lon="3.12822">
        <ele>390.79998779297</ele>
        <time>2020-10-02T12:50:47.000Z</time>
      </trkpt>
      <trkpt lat="44.10097" lon="3.12826">
        <ele>390.79998779297</ele>
        <time>2020-10-02T12:50:48.000Z</time>
      </trkpt>
      <trkpt lat="44.10104" lon="3.12855">
        <ele>391.79998779297</ele>
        <time>2020-10-02T12:50:56.000Z</time>
      </trkpt>
      <trkpt lat="44.10105" lon="3.12858">
        <ele>392</ele>
        <time>2020-10-02T12:50:57.000Z</time>
      </trkpt>
      <trkpt lat="44.10111" lon="3.12873">
        <ele>393.20001220703</ele>
        <time>2020-10-02T12:51:02.000Z</time>
      </trkpt>
      <trkpt lat="44.10113" lon="3.1288">
        <ele>393.39999389648</ele>
        <time>2020-10-02T12:51:04.000Z</time>
      </trkpt>
      <trkpt lat="44.10121" lon="3.12902">
        <ele>393.60000610352</ele>
        <time>2020-10-02T12:51:11.000Z</time>
      </trkpt>
      <trkpt lat="44.10132" lon="3.12916">
        <ele>393.60000610352</ele>
        <time>2020-10-02T12:51:15.000Z</time>
      </trkpt>
      <trkpt lat="44.10145" lon="3.12944">
        <ele>393.60000610352</ele>
        <time>2020-10-02T12:51:19.000Z</time>
      </trkpt>
      <trkpt lat="44.10147" lon="3.12953">
        <ele>393.39999389648</ele>
        <time>2020-10-02T12:51:20.000Z</time>
      </trkpt>
      <trkpt lat="44.10165" lon="3.12982">
        <ele>392.79998779297</ele>
        <time>2020-10-02T12:51:23.000Z</time>
      </trkpt>
      <trkpt lat="44.10181" lon="3.12999">
        <ele>391.20001220703</ele>
        <time>2020-10-02T12:51:25.000Z</time>
      </trkpt>
      <trkpt lat="44.10188" lon="3.1301">
        <ele>390.39999389648</ele>
        <time>2020-10-02T12:51:26.000Z</time>
      </trkpt>
      <trkpt lat="44.10195" lon="3.13018">
        <ele>389.79998779297</ele>
        <time>2020-10-02T12:51:27.000Z</time>
      </trkpt>
      <trkpt lat="44.102" lon="3.13024">
        <ele>388.79998779297</ele>
        <time>2020-10-02T12:51:28.000Z</time>
      </trkpt>
      <trkpt lat="44.10206" lon="3.13028">
        <ele>387.20001220703</ele>
        <time>2020-10-02T12:51:29.000Z</time>
      </trkpt>
      <trkpt lat="44.10208" lon="3.13028">
        <ele>386.20001220703</ele>
        <time>2020-10-02T12:51:30.000Z</time>
      </trkpt>
      <trkpt lat="44.10208" lon="3.13028">
        <ele>385</ele>
        <time>2020-10-02T12:51:31.000Z</time>
      </trkpt>
      <trkpt lat="44.10208" lon="3.13025">
        <ele>383.79998779297</ele>
        <time>2020-10-02T12:51:32.000Z</time>
      </trkpt>
      <trkpt lat="44.10204" lon="3.13018">
        <ele>382.20001220703</ele>
        <time>2020-10-02T12:51:34.000Z</time>
      </trkpt>
      <trkpt lat="44.10198" lon="3.1301">
        <ele>380.39999389648</ele>
        <time>2020-10-02T12:51:36.000Z</time>
      </trkpt>
      <trkpt lat="44.10186" lon="3.12996">
        <ele>379.39999389648</ele>
        <time>2020-10-02T12:51:39.000Z</time>
      </trkpt>
      <trkpt lat="44.10181" lon="3.12991">
        <ele>379.20001220703</ele>
        <time>2020-10-02T12:51:40.000Z</time>
      </trkpt>
      <trkpt lat="44.10173" lon="3.1298">
        <ele>379</ele>
        <time>2020-10-02T12:51:42.000Z</time>
      </trkpt>
      <trkpt lat="44.10174" lon="3.12967">
        <ele>378.39999389648</ele>
        <time>2020-10-02T12:51:45.000Z</time>
      </trkpt>
      <trkpt lat="44.1018" lon="3.12959">
        <ele>377.20001220703</ele>
        <time>2020-10-02T12:51:48.000Z</time>
      </trkpt>
      <trkpt lat="44.10185" lon="3.12951">
        <ele>376</ele>
        <time>2020-10-02T12:51:50.000Z</time>
      </trkpt>
      <trkpt lat="44.10189" lon="3.12944">
        <ele>374.60000610352</ele>
        <time>2020-10-02T12:51:52.000Z</time>
      </trkpt>
      <trkpt lat="44.10194" lon="3.12937">
        <ele>374.39999389648</ele>
        <time>2020-10-02T12:51:55.000Z</time>
      </trkpt>
      <trkpt lat="44.10207" lon="3.12935">
        <ele>374.20001220703</ele>
        <time>2020-10-02T12:51:58.000Z</time>
      </trkpt>
      <trkpt lat="44.10211" lon="3.12936">
        <ele>374.20001220703</ele>
        <time>2020-10-02T12:51:59.000Z</time>
      </trkpt>
      <trkpt lat="44.10226" lon="3.12933">
        <ele>373.79998779297</ele>
        <time>2020-10-02T12:52:04.000Z</time>
      </trkpt>
      <trkpt lat="44.10229" lon="3.12934">
        <ele>373.39999389648</ele>
        <time>2020-10-02T12:52:05.000Z</time>
      </trkpt>
      <trkpt lat="44.10244" lon="3.12943">
        <ele>372.79998779297</ele>
        <time>2020-10-02T12:52:10.000Z</time>
      </trkpt>
      <trkpt lat="44.10259" lon="3.12958">
        <ele>372.79998779297</ele>
        <time>2020-10-02T12:52:16.000Z</time>
      </trkpt>
      <trkpt lat="44.10261" lon="3.12961">
        <ele>372.79998779297</ele>
        <time>2020-10-02T12:52:18.000Z</time>
      </trkpt>
      <trkpt lat="44.10261" lon="3.12964">
        <ele>373</ele>
        <time>2020-10-02T12:52:20.000Z</time>
      </trkpt>
      <trkpt lat="44.10265" lon="3.12968">
        <ele>373</ele>
        <time>2020-10-02T12:52:25.000Z</time>
      </trkpt>
      <trkpt lat="44.10268" lon="3.12962">
        <ele>372.39999389648</ele>
        <time>2020-10-02T12:52:31.000Z</time>
      </trkpt>
      <trkpt lat="44.10268" lon="3.12962">
        <ele>372.39999389648</ele>
        <time>2020-10-02T12:52:32.000Z</time>
      </trkpt>
    </trkseg>
  </trk>
</gpx>